<?xml version='1.0' encoding='UTF-8'?>
<gpx version="1.1" creator="https://www.komoot.de" xmlns="http://www.topografix.com/GPX/1/1" xmlns:xsi="http://www.w3.org/2001/XMLSchema-instance" xsi:schemaLocation="http://www.topografix.com/GPX/1/1 http://www.topografix.com/GPX/1/1/gpx.xsd">
  <metadata>
    <name>Wanderung 19.09.2020 14:44</name>
    <author>
      <link href="https://www.komoot.de">
        <text>komoot</text>
        <type>text/html</type>
      </link>
    </author>
  </metadata>
  <trk>
    <name>Wanderung 19.09.2020 14:44</name>
    <trkseg>
      <trkpt lat="47.027159" lon="9.103571">
        <ele>1510.932949</ele>
        <time>2020-09-19T06:19:05.656Z</time>
      </trkpt>
      <trkpt lat="47.027235" lon="9.103773">
        <ele>1510.932949</ele>
        <time>2020-09-19T06:19:39.802Z</time>
      </trkpt>
      <trkpt lat="47.027224" lon="9.103915">
        <ele>1510.932949</ele>
        <time>2020-09-19T06:19:50.795Z</time>
      </trkpt>
      <trkpt lat="47.027185" lon="9.104039">
        <ele>1510.932949</ele>
        <time>2020-09-19T06:20:01.797Z</time>
      </trkpt>
      <trkpt lat="47.027141" lon="9.104160">
        <ele>1510.932949</ele>
        <time>2020-09-19T06:20:15.808Z</time>
      </trkpt>
      <trkpt lat="47.027099" lon="9.104279">
        <ele>1510.932949</ele>
        <time>2020-09-19T06:20:30.840Z</time>
      </trkpt>
      <trkpt lat="47.027055" lon="9.104407">
        <ele>1510.932949</ele>
        <time>2020-09-19T06:20:43.854Z</time>
      </trkpt>
      <trkpt lat="47.027008" lon="9.104522">
        <ele>1510.932949</ele>
        <time>2020-09-19T06:20:58.826Z</time>
      </trkpt>
      <trkpt lat="47.026974" lon="9.104646">
        <ele>1510.932949</ele>
        <time>2020-09-19T06:21:12.809Z</time>
      </trkpt>
      <trkpt lat="47.026973" lon="9.104784">
        <ele>1511.107691</ele>
        <time>2020-09-19T06:21:28.809Z</time>
      </trkpt>
      <trkpt lat="47.026952" lon="9.104924">
        <ele>1513.358669</ele>
        <time>2020-09-19T06:21:41.809Z</time>
      </trkpt>
      <trkpt lat="47.026968" lon="9.105064">
        <ele>1515.587733</ele>
        <time>2020-09-19T06:21:54.876Z</time>
      </trkpt>
      <trkpt lat="47.026950" lon="9.105203">
        <ele>1517.809449</ele>
        <time>2020-09-19T06:22:13.799Z</time>
      </trkpt>
      <trkpt lat="47.026958" lon="9.105340">
        <ele>1519.968601</ele>
        <time>2020-09-19T06:22:28.800Z</time>
      </trkpt>
      <trkpt lat="47.026950" lon="9.105475">
        <ele>1522.096464</ele>
        <time>2020-09-19T06:22:49.812Z</time>
      </trkpt>
      <trkpt lat="47.026946" lon="9.105608">
        <ele>1524.186958</ele>
        <time>2020-09-19T06:23:01.810Z</time>
      </trkpt>
      <trkpt lat="47.026971" lon="9.105743">
        <ele>1526.383661</ele>
        <time>2020-09-19T06:23:16.812Z</time>
      </trkpt>
      <trkpt lat="47.026981" lon="9.105876">
        <ele>1528.484789</ele>
        <time>2020-09-19T06:23:29.814Z</time>
      </trkpt>
      <trkpt lat="47.027006" lon="9.106009">
        <ele>1530.651199</ele>
        <time>2020-09-19T06:23:42.817Z</time>
      </trkpt>
      <trkpt lat="47.027053" lon="9.106132">
        <ele>1532.865397</ele>
        <time>2020-09-19T06:23:56.817Z</time>
      </trkpt>
      <trkpt lat="47.027105" lon="9.106245">
        <ele>1535.006292</ele>
        <time>2020-09-19T06:24:09.811Z</time>
      </trkpt>
      <trkpt lat="47.027155" lon="9.106362">
        <ele>1537.174705</ele>
        <time>2020-09-19T06:24:23.817Z</time>
      </trkpt>
      <trkpt lat="47.027190" lon="9.106484">
        <ele>1539.253182</ele>
        <time>2020-09-19T06:24:36.822Z</time>
      </trkpt>
      <trkpt lat="47.027186" lon="9.106616">
        <ele>1541.327979</ele>
        <time>2020-09-19T06:24:47.808Z</time>
      </trkpt>
      <trkpt lat="47.027144" lon="9.106735">
        <ele>1543.432219</ele>
        <time>2020-09-19T06:50:33.662Z</time>
      </trkpt>
      <trkpt lat="47.027202" lon="9.106631">
        <ele>1545.542219</ele>
        <time>2020-09-19T06:54:59.665Z</time>
      </trkpt>
      <trkpt lat="47.027201" lon="9.106494">
        <ele>1547.693605</ele>
        <time>2020-09-19T06:55:10.667Z</time>
      </trkpt>
      <trkpt lat="47.027294" lon="9.106510">
        <ele>1549.850653</ele>
        <time>2020-09-19T06:55:50.666Z</time>
      </trkpt>
      <trkpt lat="47.027373" lon="9.106590">
        <ele>1552.061976</ele>
        <time>2020-09-19T06:56:01.665Z</time>
      </trkpt>
      <trkpt lat="47.027461" lon="9.106651">
        <ele>1554.558580</ele>
        <time>2020-09-19T06:56:15.676Z</time>
      </trkpt>
      <trkpt lat="47.027547" lon="9.106718">
        <ele>1557.096423</ele>
        <time>2020-09-19T06:56:25.663Z</time>
      </trkpt>
      <trkpt lat="47.027626" lon="9.106789">
        <ele>1559.511025</ele>
        <time>2020-09-19T06:56:36.665Z</time>
      </trkpt>
      <trkpt lat="47.027691" lon="9.106685">
        <ele>1562.017731</ele>
        <time>2020-09-19T06:56:56.708Z</time>
      </trkpt>
      <trkpt lat="47.027739" lon="9.106568">
        <ele>1564.443727</ele>
        <time>2020-09-19T06:57:10.663Z</time>
      </trkpt>
      <trkpt lat="47.027748" lon="9.106431">
        <ele>1566.888876</ele>
        <time>2020-09-19T06:57:24.666Z</time>
      </trkpt>
      <trkpt lat="47.027716" lon="9.106300">
        <ele>1569.361082</ele>
        <time>2020-09-19T06:57:41.664Z</time>
      </trkpt>
      <trkpt lat="47.027681" lon="9.106178">
        <ele>1571.712611</ele>
        <time>2020-09-19T06:57:53.667Z</time>
      </trkpt>
      <trkpt lat="47.027729" lon="9.106066">
        <ele>1574.062947</ele>
        <time>2020-09-19T06:58:17.667Z</time>
      </trkpt>
      <trkpt lat="47.027820" lon="9.106046">
        <ele>1576.461121</ele>
        <time>2020-09-19T06:58:37.703Z</time>
      </trkpt>
      <trkpt lat="47.027915" lon="9.106040">
        <ele>1578.939372</ele>
        <time>2020-09-19T06:58:53.672Z</time>
      </trkpt>
      <trkpt lat="47.028008" lon="9.106028">
        <ele>1581.372562</ele>
        <time>2020-09-19T06:59:09.669Z</time>
      </trkpt>
      <trkpt lat="47.028095" lon="9.105989">
        <ele>1583.743511</ele>
        <time>2020-09-19T06:59:26.672Z</time>
      </trkpt>
      <trkpt lat="47.028187" lon="9.105985">
        <ele>1586.142333</ele>
        <time>2020-09-19T06:59:42.668Z</time>
      </trkpt>
      <trkpt lat="47.028275" lon="9.106012">
        <ele>1588.485473</ele>
        <time>2020-09-19T06:59:52.649Z</time>
      </trkpt>
      <trkpt lat="47.028366" lon="9.106020">
        <ele>1590.861434</ele>
        <time>2020-09-19T07:00:10.664Z</time>
      </trkpt>
      <trkpt lat="47.028458" lon="9.106027">
        <ele>1593.262426</ele>
        <time>2020-09-19T07:00:27.664Z</time>
      </trkpt>
      <trkpt lat="47.028536" lon="9.106109">
        <ele>1595.763380</ele>
        <time>2020-09-19T07:00:38.666Z</time>
      </trkpt>
      <trkpt lat="47.028627" lon="9.106138">
        <ele>1598.190398</ele>
        <time>2020-09-19T07:00:58.665Z</time>
      </trkpt>
      <trkpt lat="47.028721" lon="9.106136">
        <ele>1600.878213</ele>
        <time>2020-09-19T07:01:16.666Z</time>
      </trkpt>
      <trkpt lat="47.028756" lon="9.106262">
        <ele>1603.706812</ele>
        <time>2020-09-19T07:01:45.665Z</time>
      </trkpt>
      <trkpt lat="47.028781" lon="9.106398">
        <ele>1606.635154</ele>
        <time>2020-09-19T07:02:00.668Z</time>
      </trkpt>
      <trkpt lat="47.028843" lon="9.106495">
        <ele>1609.399602</ele>
        <time>2020-09-19T07:02:16.665Z</time>
      </trkpt>
      <trkpt lat="47.028935" lon="9.106513">
        <ele>1612.230372</ele>
        <time>2020-09-19T07:02:29.666Z</time>
      </trkpt>
      <trkpt lat="47.029000" lon="9.106611">
        <ele>1615.073053</ele>
        <time>2020-09-19T07:02:47.666Z</time>
      </trkpt>
      <trkpt lat="47.029071" lon="9.106693">
        <ele>1617.828987</ele>
        <time>2020-09-19T07:03:02.672Z</time>
      </trkpt>
      <trkpt lat="47.029159" lon="9.106756">
        <ele>1620.815427</ele>
        <time>2020-09-19T07:03:13.666Z</time>
      </trkpt>
      <trkpt lat="47.029240" lon="9.106835">
        <ele>1623.781960</ele>
        <time>2020-09-19T07:03:30.666Z</time>
      </trkpt>
      <trkpt lat="47.029321" lon="9.106894">
        <ele>1626.540126</ele>
        <time>2020-09-19T07:03:50.670Z</time>
      </trkpt>
      <trkpt lat="47.029382" lon="9.107001">
        <ele>1629.440011</ele>
        <time>2020-09-19T07:04:06.666Z</time>
      </trkpt>
      <trkpt lat="47.029428" lon="9.107128">
        <ele>1632.429819</ele>
        <time>2020-09-19T07:04:22.673Z</time>
      </trkpt>
      <trkpt lat="47.029495" lon="9.107218">
        <ele>1635.200438</ele>
        <time>2020-09-19T07:04:36.672Z</time>
      </trkpt>
      <trkpt lat="47.029572" lon="9.107289">
        <ele>1637.974205</ele>
        <time>2020-09-19T07:04:53.666Z</time>
      </trkpt>
      <trkpt lat="47.029577" lon="9.107427">
        <ele>1640.847122</ele>
        <time>2020-09-19T07:05:12.669Z</time>
      </trkpt>
      <trkpt lat="47.029600" lon="9.107556">
        <ele>1643.619116</ele>
        <time>2020-09-19T07:05:30.670Z</time>
      </trkpt>
      <trkpt lat="47.029633" lon="9.107683">
        <ele>1646.444639</ele>
        <time>2020-09-19T07:05:51.667Z</time>
      </trkpt>
      <trkpt lat="47.029657" lon="9.107817">
        <ele>1649.324911</ele>
        <time>2020-09-19T07:06:17.670Z</time>
      </trkpt>
      <trkpt lat="47.029668" lon="9.107951">
        <ele>1652.130747</ele>
        <time>2020-09-19T07:06:37.672Z</time>
      </trkpt>
      <trkpt lat="47.029695" lon="9.108079">
        <ele>1654.826368</ele>
        <time>2020-09-19T07:06:59.669Z</time>
      </trkpt>
      <trkpt lat="47.029734" lon="9.108198">
        <ele>1657.268564</ele>
        <time>2020-09-19T07:07:27.670Z</time>
      </trkpt>
      <trkpt lat="47.029752" lon="9.108327">
        <ele>1659.704000</ele>
        <time>2020-09-19T07:07:47.669Z</time>
      </trkpt>
      <trkpt lat="47.029774" lon="9.108455">
        <ele>1662.145563</ele>
        <time>2020-09-19T07:08:07.668Z</time>
      </trkpt>
      <trkpt lat="47.029793" lon="9.108588">
        <ele>1664.658946</ele>
        <time>2020-09-19T07:08:27.673Z</time>
      </trkpt>
      <trkpt lat="47.029830" lon="9.108713">
        <ele>1667.179504</ele>
        <time>2020-09-19T07:08:44.707Z</time>
      </trkpt>
      <trkpt lat="47.029859" lon="9.108841">
        <ele>1669.674314</ele>
        <time>2020-09-19T07:09:04.669Z</time>
      </trkpt>
      <trkpt lat="47.029896" lon="9.108964">
        <ele>1672.160982</ele>
        <time>2020-09-19T07:09:26.709Z</time>
      </trkpt>
      <trkpt lat="47.029951" lon="9.109076">
        <ele>1674.714125</ele>
        <time>2020-09-19T07:09:42.667Z</time>
      </trkpt>
      <trkpt lat="47.030027" lon="9.109167">
        <ele>1677.376040</ele>
        <time>2020-09-19T07:09:56.667Z</time>
      </trkpt>
      <trkpt lat="47.030091" lon="9.109265">
        <ele>1679.886292</ele>
        <time>2020-09-19T07:10:12.733Z</time>
      </trkpt>
      <trkpt lat="47.030145" lon="9.109374">
        <ele>1682.378569</ele>
        <time>2020-09-19T07:10:24.668Z</time>
      </trkpt>
      <trkpt lat="47.030250" lon="9.109498">
        <ele>1686.036134</ele>
        <time>2020-09-19T07:15:27.673Z</time>
      </trkpt>
      <trkpt lat="47.030286" lon="9.109620">
        <ele>1688.494972</ele>
        <time>2020-09-19T07:15:42.676Z</time>
      </trkpt>
      <trkpt lat="47.030331" lon="9.109746">
        <ele>1691.125940</ele>
        <time>2020-09-19T07:15:55.678Z</time>
      </trkpt>
      <trkpt lat="47.030369" lon="9.109870">
        <ele>1693.640527</ele>
        <time>2020-09-19T07:16:13.678Z</time>
      </trkpt>
      <trkpt lat="47.030446" lon="9.109959">
        <ele>1696.300461</ele>
        <time>2020-09-19T07:16:35.677Z</time>
      </trkpt>
      <trkpt lat="47.030530" lon="9.110010">
        <ele>1698.767277</ele>
        <time>2020-09-19T07:16:43.672Z</time>
      </trkpt>
      <trkpt lat="47.030566" lon="9.110138">
        <ele>1701.328323</ele>
        <time>2020-09-19T07:17:00.674Z</time>
      </trkpt>
      <trkpt lat="47.030647" lon="9.110220">
        <ele>1704.164519</ele>
        <time>2020-09-19T07:17:21.673Z</time>
      </trkpt>
      <trkpt lat="47.030737" lon="9.110255">
        <ele>1707.074981</ele>
        <time>2020-09-19T07:17:32.683Z</time>
      </trkpt>
      <trkpt lat="47.030827" lon="9.110230">
        <ele>1709.938269</ele>
        <time>2020-09-19T07:17:46.674Z</time>
      </trkpt>
      <trkpt lat="47.030861" lon="9.110352">
        <ele>1712.746513</ele>
        <time>2020-09-19T07:18:13.670Z</time>
      </trkpt>
      <trkpt lat="47.030938" lon="9.110429">
        <ele>1715.659391</ele>
        <time>2020-09-19T07:18:30.669Z</time>
      </trkpt>
      <trkpt lat="47.031028" lon="9.110464">
        <ele>1718.569853</ele>
        <time>2020-09-19T07:18:47.714Z</time>
      </trkpt>
      <trkpt lat="47.030963" lon="9.110557">
        <ele>1721.407913</ele>
        <time>2020-09-19T07:19:11.679Z</time>
      </trkpt>
      <trkpt lat="47.031005" lon="9.110675">
        <ele>1724.244195</ele>
        <time>2020-09-19T07:19:41.675Z</time>
      </trkpt>
      <trkpt lat="47.030990" lon="9.110811">
        <ele>1727.179528</ele>
        <time>2020-09-19T07:20:10.672Z</time>
      </trkpt>
      <trkpt lat="47.031014" lon="9.110943">
        <ele>1730.090285</ele>
        <time>2020-09-19T07:20:28.671Z</time>
      </trkpt>
      <trkpt lat="47.031059" lon="9.111058">
        <ele>1732.915564</ele>
        <time>2020-09-19T07:20:42.672Z</time>
      </trkpt>
      <trkpt lat="47.031105" lon="9.111179">
        <ele>1735.867496</ele>
        <time>2020-09-19T07:21:13.682Z</time>
      </trkpt>
      <trkpt lat="47.031131" lon="9.111307">
        <ele>1738.713208</ele>
        <time>2020-09-19T07:21:30.678Z</time>
      </trkpt>
      <trkpt lat="47.031203" lon="9.111390">
        <ele>1741.575492</ele>
        <time>2020-09-19T07:21:50.681Z</time>
      </trkpt>
      <trkpt lat="47.031263" lon="9.111490">
        <ele>1744.414001</ele>
        <time>2020-09-19T07:22:19.682Z</time>
      </trkpt>
      <trkpt lat="47.031338" lon="9.111575">
        <ele>1747.376448</ele>
        <time>2020-09-19T07:22:41.673Z</time>
      </trkpt>
      <trkpt lat="47.031425" lon="9.111639">
        <ele>1750.418685</ele>
        <time>2020-09-19T07:23:04.713Z</time>
      </trkpt>
      <trkpt lat="47.031473" lon="9.111753">
        <ele>1753.273641</ele>
        <time>2020-09-19T07:23:47.672Z</time>
      </trkpt>
      <trkpt lat="47.031498" lon="9.111885">
        <ele>1756.192586</ele>
        <time>2020-09-19T07:24:04.716Z</time>
      </trkpt>
      <trkpt lat="47.031553" lon="9.112001">
        <ele>1759.181834</ele>
        <time>2020-09-19T07:24:23.675Z</time>
      </trkpt>
      <trkpt lat="47.031621" lon="9.112089">
        <ele>1761.169117</ele>
        <time>2020-09-19T07:24:43.680Z</time>
      </trkpt>
      <trkpt lat="47.031689" lon="9.112183">
        <ele>1763.216792</ele>
        <time>2020-09-19T07:25:15.713Z</time>
      </trkpt>
      <trkpt lat="47.031755" lon="9.112277">
        <ele>1765.232788</ele>
        <time>2020-09-19T07:25:42.677Z</time>
      </trkpt>
      <trkpt lat="47.031830" lon="9.112357">
        <ele>1767.265074</ele>
        <time>2020-09-19T07:26:14.697Z</time>
      </trkpt>
      <trkpt lat="47.031845" lon="9.112487">
        <ele>1769.234699</ele>
        <time>2020-09-19T07:26:38.722Z</time>
      </trkpt>
      <trkpt lat="47.031918" lon="9.112578">
        <ele>1771.334165</ele>
        <time>2020-09-19T07:27:00.679Z</time>
      </trkpt>
      <trkpt lat="47.031993" lon="9.112666">
        <ele>1773.438946</ele>
        <time>2020-09-19T07:27:26.678Z</time>
      </trkpt>
      <trkpt lat="47.032046" lon="9.112799">
        <ele>1775.740402</ele>
        <time>2020-09-19T07:28:05.689Z</time>
      </trkpt>
      <trkpt lat="47.032105" lon="9.113089">
        <ele>1780.261397</ele>
        <time>2020-09-19T07:33:53.694Z</time>
      </trkpt>
      <trkpt lat="47.032176" lon="9.113173">
        <ele>1782.260405</ele>
        <time>2020-09-19T07:34:10.677Z</time>
      </trkpt>
      <trkpt lat="47.032184" lon="9.113311">
        <ele>1784.329337</ele>
        <time>2020-09-19T07:34:20.677Z</time>
      </trkpt>
      <trkpt lat="47.032198" lon="9.113444">
        <ele>1786.339688</ele>
        <time>2020-09-19T07:34:38.684Z</time>
      </trkpt>
      <trkpt lat="47.032213" lon="9.113576">
        <ele>1788.338764</ele>
        <time>2020-09-19T07:34:53.685Z</time>
      </trkpt>
      <trkpt lat="47.032232" lon="9.113709">
        <ele>1790.368730</ele>
        <time>2020-09-19T07:35:07.672Z</time>
      </trkpt>
      <trkpt lat="47.032214" lon="9.113843">
        <ele>1792.408969</ele>
        <time>2020-09-19T07:35:25.681Z</time>
      </trkpt>
      <trkpt lat="47.032163" lon="9.113962">
        <ele>1794.508844</ele>
        <time>2020-09-19T07:35:38.676Z</time>
      </trkpt>
      <trkpt lat="47.032195" lon="9.114096">
        <ele>1796.629888</ele>
        <time>2020-09-19T07:35:50.684Z</time>
      </trkpt>
      <trkpt lat="47.032253" lon="9.114199">
        <ele>1798.573109</ele>
        <time>2020-09-19T07:35:58.683Z</time>
      </trkpt>
      <trkpt lat="47.032312" lon="9.114300">
        <ele>1799.134591</ele>
        <time>2020-09-19T07:36:09.677Z</time>
      </trkpt>
      <trkpt lat="47.032409" lon="9.114298">
        <ele>1799.735371</ele>
        <time>2020-09-19T07:36:22.677Z</time>
      </trkpt>
      <trkpt lat="47.032494" lon="9.114343">
        <ele>1800.294998</ele>
        <time>2020-09-19T07:36:31.677Z</time>
      </trkpt>
      <trkpt lat="47.032582" lon="9.114393">
        <ele>1800.879421</ele>
        <time>2020-09-19T07:36:43.714Z</time>
      </trkpt>
      <trkpt lat="47.032666" lon="9.114467">
        <ele>1801.486205</ele>
        <time>2020-09-19T07:36:54.679Z</time>
      </trkpt>
      <trkpt lat="47.032745" lon="9.114539">
        <ele>1802.062162</ele>
        <time>2020-09-19T07:37:05.680Z</time>
      </trkpt>
      <trkpt lat="47.032820" lon="9.114628">
        <ele>1802.659545</ele>
        <time>2020-09-19T07:37:16.676Z</time>
      </trkpt>
      <trkpt lat="47.032908" lon="9.114657">
        <ele>1803.218107</ele>
        <time>2020-09-19T07:37:26.681Z</time>
      </trkpt>
      <trkpt lat="47.032999" lon="9.114694">
        <ele>1803.802910</ele>
        <time>2020-09-19T07:37:36.661Z</time>
      </trkpt>
      <trkpt lat="47.033092" lon="9.114735">
        <ele>1804.404297</ele>
        <time>2020-09-19T07:37:47.668Z</time>
      </trkpt>
      <trkpt lat="47.033178" lon="9.114791">
        <ele>1804.986993</ele>
        <time>2020-09-19T07:37:57.670Z</time>
      </trkpt>
      <trkpt lat="47.033259" lon="9.114872">
        <ele>1805.594060</ele>
        <time>2020-09-19T07:38:07.660Z</time>
      </trkpt>
      <trkpt lat="47.033305" lon="9.115003">
        <ele>1806.216080</ele>
        <time>2020-09-19T07:38:23.677Z</time>
      </trkpt>
      <trkpt lat="47.033349" lon="9.115117">
        <ele>1806.769069</ele>
        <time>2020-09-19T07:38:32.675Z</time>
      </trkpt>
      <trkpt lat="47.033409" lon="9.115223">
        <ele>1807.350670</ele>
        <time>2020-09-19T07:38:42.677Z</time>
      </trkpt>
      <trkpt lat="47.033465" lon="9.115334">
        <ele>1807.933588</ele>
        <time>2020-09-19T07:38:52.679Z</time>
      </trkpt>
      <trkpt lat="47.033530" lon="9.115435">
        <ele>1808.519923</ele>
        <time>2020-09-19T07:39:04.679Z</time>
      </trkpt>
      <trkpt lat="47.033607" lon="9.115510">
        <ele>1809.092299</ele>
        <time>2020-09-19T07:39:14.668Z</time>
      </trkpt>
      <trkpt lat="47.033672" lon="9.115608">
        <ele>1809.669492</ele>
        <time>2020-09-19T07:39:26.681Z</time>
      </trkpt>
      <trkpt lat="47.033752" lon="9.115675">
        <ele>1810.218065</ele>
        <time>2020-09-19T07:39:38.672Z</time>
      </trkpt>
      <trkpt lat="47.033844" lon="9.115724">
        <ele>1810.800002</ele>
        <time>2020-09-19T07:39:50.677Z</time>
      </trkpt>
      <trkpt lat="47.033930" lon="9.115796">
        <ele>1811.388728</ele>
        <time>2020-09-19T07:40:00.678Z</time>
      </trkpt>
      <trkpt lat="47.034026" lon="9.115823">
        <ele>1811.969914</ele>
        <time>2020-09-19T07:40:09.717Z</time>
      </trkpt>
      <trkpt lat="47.034119" lon="9.115832">
        <ele>1812.524073</ele>
        <time>2020-09-19T07:40:20.675Z</time>
      </trkpt>
      <trkpt lat="47.034210" lon="9.115824">
        <ele>1813.066108</ele>
        <time>2020-09-19T07:40:29.673Z</time>
      </trkpt>
      <trkpt lat="47.034303" lon="9.115840">
        <ele>1813.622854</ele>
        <time>2020-09-19T07:40:39.715Z</time>
      </trkpt>
      <trkpt lat="47.034397" lon="9.115848">
        <ele>1814.182696</ele>
        <time>2020-09-19T07:40:48.676Z</time>
      </trkpt>
      <trkpt lat="47.034488" lon="9.115812">
        <ele>1814.743083</ele>
        <time>2020-09-19T07:40:59.676Z</time>
      </trkpt>
      <trkpt lat="47.034578" lon="9.115762">
        <ele>1815.315279</ele>
        <time>2020-09-19T07:41:09.674Z</time>
      </trkpt>
      <trkpt lat="47.034668" lon="9.115765">
        <ele>1815.850536</ele>
        <time>2020-09-19T07:41:15.675Z</time>
      </trkpt>
      <trkpt lat="47.034767" lon="9.115747">
        <ele>1816.443670</ele>
        <time>2020-09-19T07:41:24.677Z</time>
      </trkpt>
      <trkpt lat="47.034856" lon="9.115714">
        <ele>1816.989480</ele>
        <time>2020-09-19T07:41:33.663Z</time>
      </trkpt>
      <trkpt lat="47.034956" lon="9.115736">
        <ele>1817.590704</ele>
        <time>2020-09-19T07:41:44.731Z</time>
      </trkpt>
      <trkpt lat="47.035046" lon="9.115754">
        <ele>1818.130772</ele>
        <time>2020-09-19T07:41:54.661Z</time>
      </trkpt>
      <trkpt lat="47.035145" lon="9.115737">
        <ele>1818.723421</ele>
        <time>2020-09-19T07:42:06.680Z</time>
      </trkpt>
      <trkpt lat="47.035235" lon="9.115709">
        <ele>1819.270437</ele>
        <time>2020-09-19T07:42:14.691Z</time>
      </trkpt>
      <trkpt lat="47.035332" lon="9.115686">
        <ele>1819.854660</ele>
        <time>2020-09-19T07:42:25.676Z</time>
      </trkpt>
      <trkpt lat="47.035427" lon="9.115729">
        <ele>1820.533638</ele>
        <time>2020-09-19T07:42:34.673Z</time>
      </trkpt>
      <trkpt lat="47.035491" lon="9.115825">
        <ele>1821.873826</ele>
        <time>2020-09-19T07:45:20.682Z</time>
      </trkpt>
      <trkpt lat="47.035584" lon="9.115819">
        <ele>1823.236924</ele>
        <time>2020-09-19T07:45:35.675Z</time>
      </trkpt>
      <trkpt lat="47.035677" lon="9.115797">
        <ele>1824.616291</ele>
        <time>2020-09-19T07:45:50.675Z</time>
      </trkpt>
      <trkpt lat="47.035767" lon="9.115818">
        <ele>1825.950704</ele>
        <time>2020-09-19T07:46:02.682Z</time>
      </trkpt>
      <trkpt lat="47.035864" lon="9.115822">
        <ele>1827.371619</ele>
        <time>2020-09-19T07:46:13.676Z</time>
      </trkpt>
      <trkpt lat="47.035963" lon="9.115829">
        <ele>1828.822940</ele>
        <time>2020-09-19T07:46:32.677Z</time>
      </trkpt>
      <trkpt lat="47.036058" lon="9.115848">
        <ele>1830.226871</ele>
        <time>2020-09-19T07:46:46.676Z</time>
      </trkpt>
      <trkpt lat="47.036154" lon="9.115859">
        <ele>1831.636861</ele>
        <time>2020-09-19T07:46:57.679Z</time>
      </trkpt>
      <trkpt lat="47.036238" lon="9.115906">
        <ele>1832.953255</ele>
        <time>2020-09-19T07:47:10.674Z</time>
      </trkpt>
      <trkpt lat="47.036326" lon="9.115945">
        <ele>1834.299319</ele>
        <time>2020-09-19T07:47:24.682Z</time>
      </trkpt>
      <trkpt lat="47.036418" lon="9.115993">
        <ele>1835.729089</ele>
        <time>2020-09-19T07:47:38.677Z</time>
      </trkpt>
      <trkpt lat="47.036505" lon="9.116040">
        <ele>1837.086618</ele>
        <time>2020-09-19T07:47:57.676Z</time>
      </trkpt>
      <trkpt lat="47.036592" lon="9.116094">
        <ele>1838.469836</ele>
        <time>2020-09-19T07:48:14.677Z</time>
      </trkpt>
      <trkpt lat="47.036684" lon="9.116110">
        <ele>1839.826405</ele>
        <time>2020-09-19T07:48:33.678Z</time>
      </trkpt>
      <trkpt lat="47.036764" lon="9.116041">
        <ele>1841.185224</ele>
        <time>2020-09-19T07:48:51.678Z</time>
      </trkpt>
      <trkpt lat="47.036849" lon="9.115998">
        <ele>1842.501762</ele>
        <time>2020-09-19T07:49:05.680Z</time>
      </trkpt>
      <trkpt lat="47.036927" lon="9.115931">
        <ele>1843.825220</ele>
        <time>2020-09-19T07:49:16.680Z</time>
      </trkpt>
      <trkpt lat="47.037020" lon="9.115913">
        <ele>1845.198799</ele>
        <time>2020-09-19T07:49:36.718Z</time>
      </trkpt>
      <trkpt lat="47.037115" lon="9.115905">
        <ele>1846.592155</ele>
        <time>2020-09-19T07:49:53.684Z</time>
      </trkpt>
      <trkpt lat="47.037208" lon="9.115930">
        <ele>1848.742291</ele>
        <time>2020-09-19T07:50:08.683Z</time>
      </trkpt>
      <trkpt lat="47.037281" lon="9.116007">
        <ele>1850.862775</ele>
        <time>2020-09-19T07:50:22.683Z</time>
      </trkpt>
      <trkpt lat="47.037371" lon="9.116028">
        <ele>1853.012177</ele>
        <time>2020-09-19T07:50:33.682Z</time>
      </trkpt>
      <trkpt lat="47.037447" lon="9.115954">
        <ele>1855.163469</ele>
        <time>2020-09-19T07:50:53.682Z</time>
      </trkpt>
      <trkpt lat="47.037494" lon="9.116073">
        <ele>1857.374305</ele>
        <time>2020-09-19T07:51:14.681Z</time>
      </trkpt>
      <trkpt lat="47.037501" lon="9.116205">
        <ele>1859.502519</ele>
        <time>2020-09-19T07:51:29.679Z</time>
      </trkpt>
      <trkpt lat="47.037541" lon="9.116326">
        <ele>1861.664238</ele>
        <time>2020-09-19T07:51:50.668Z</time>
      </trkpt>
      <trkpt lat="47.037629" lon="9.116366">
        <ele>1863.837105</ele>
        <time>2020-09-19T07:52:05.684Z</time>
      </trkpt>
      <trkpt lat="47.037721" lon="9.116336">
        <ele>1866.059945</ele>
        <time>2020-09-19T07:52:18.678Z</time>
      </trkpt>
      <trkpt lat="47.037787" lon="9.116240">
        <ele>1868.251847</ele>
        <time>2020-09-19T07:52:32.681Z</time>
      </trkpt>
      <trkpt lat="47.037861" lon="9.116162">
        <ele>1870.400857</ele>
        <time>2020-09-19T07:52:56.689Z</time>
      </trkpt>
      <trkpt lat="47.037955" lon="9.116175">
        <ele>1872.627756</ele>
        <time>2020-09-19T07:53:14.686Z</time>
      </trkpt>
      <trkpt lat="47.038040" lon="9.116240">
        <ele>1874.888479</ele>
        <time>2020-09-19T07:53:36.720Z</time>
      </trkpt>
      <trkpt lat="47.038133" lon="9.116227">
        <ele>1877.091897</ele>
        <time>2020-09-19T07:53:53.689Z</time>
      </trkpt>
      <trkpt lat="47.038227" lon="9.116259">
        <ele>1879.367857</ele>
        <time>2020-09-19T07:54:10.683Z</time>
      </trkpt>
      <trkpt lat="47.038316" lon="9.116294">
        <ele>1881.541084</ele>
        <time>2020-09-19T07:54:30.685Z</time>
      </trkpt>
      <trkpt lat="47.038409" lon="9.116309">
        <ele>1883.747783</ele>
        <time>2020-09-19T07:54:44.683Z</time>
      </trkpt>
      <trkpt lat="47.038473" lon="9.116403">
        <ele>1885.883564</ele>
        <time>2020-09-19T07:55:00.684Z</time>
      </trkpt>
      <trkpt lat="47.038538" lon="9.116500">
        <ele>1888.070196</ele>
        <time>2020-09-19T07:55:15.683Z</time>
      </trkpt>
      <trkpt lat="47.038608" lon="9.116591">
        <ele>1890.342771</ele>
        <time>2020-09-19T07:55:27.723Z</time>
      </trkpt>
      <trkpt lat="47.038733" lon="9.116763">
        <ele>1894.623376</ele>
        <time>2020-09-19T07:59:07.683Z</time>
      </trkpt>
      <trkpt lat="47.038783" lon="9.116874">
        <ele>1896.888485</ele>
        <time>2020-09-19T07:59:31.686Z</time>
      </trkpt>
      <trkpt lat="47.038857" lon="9.116960">
        <ele>1899.246533</ele>
        <time>2020-09-19T07:59:44.686Z</time>
      </trkpt>
      <trkpt lat="47.038903" lon="9.117084">
        <ele>1901.649959</ele>
        <time>2020-09-19T08:00:01.662Z</time>
      </trkpt>
      <trkpt lat="47.038926" lon="9.117212">
        <ele>1903.903468</ele>
        <time>2020-09-19T08:00:24.685Z</time>
      </trkpt>
      <trkpt lat="47.038961" lon="9.117335">
        <ele>1906.172584</ele>
        <time>2020-09-19T08:00:46.683Z</time>
      </trkpt>
      <trkpt lat="47.039028" lon="9.117438">
        <ele>1908.596558</ele>
        <time>2020-09-19T08:01:00.666Z</time>
      </trkpt>
      <trkpt lat="47.039094" lon="9.117529">
        <ele>1910.858853</ele>
        <time>2020-09-19T08:01:14.683Z</time>
      </trkpt>
      <trkpt lat="47.039175" lon="9.117593">
        <ele>1913.156903</ele>
        <time>2020-09-19T08:01:30.682Z</time>
      </trkpt>
      <trkpt lat="47.039263" lon="9.117635">
        <ele>1915.468480</ele>
        <time>2020-09-19T08:01:46.676Z</time>
      </trkpt>
      <trkpt lat="47.039338" lon="9.117710">
        <ele>1917.735655</ele>
        <time>2020-09-19T08:02:03.681Z</time>
      </trkpt>
      <trkpt lat="47.039434" lon="9.117694">
        <ele>1920.149132</ele>
        <time>2020-09-19T08:02:20.681Z</time>
      </trkpt>
      <trkpt lat="47.039517" lon="9.117642">
        <ele>1922.403523</ele>
        <time>2020-09-19T08:02:36.679Z</time>
      </trkpt>
      <trkpt lat="47.039607" lon="9.117615">
        <ele>1924.698207</ele>
        <time>2020-09-19T08:02:51.682Z</time>
      </trkpt>
      <trkpt lat="47.039697" lon="9.117607">
        <ele>1926.950507</ele>
        <time>2020-09-19T08:03:10.683Z</time>
      </trkpt>
      <trkpt lat="47.039793" lon="9.117637">
        <ele>1929.402343</ele>
        <time>2020-09-19T08:03:26.687Z</time>
      </trkpt>
      <trkpt lat="47.039884" lon="9.117653">
        <ele>1931.691762</ele>
        <time>2020-09-19T08:03:48.686Z</time>
      </trkpt>
      <trkpt lat="47.039975" lon="9.117683">
        <ele>1934.021584</ele>
        <time>2020-09-19T08:04:05.686Z</time>
      </trkpt>
      <trkpt lat="47.040067" lon="9.117695">
        <ele>1936.368839</ele>
        <time>2020-09-19T08:04:26.684Z</time>
      </trkpt>
      <trkpt lat="47.040153" lon="9.117735">
        <ele>1938.662490</ele>
        <time>2020-09-19T08:04:45.687Z</time>
      </trkpt>
      <trkpt lat="47.040236" lon="9.117796">
        <ele>1941.022537</ele>
        <time>2020-09-19T08:05:05.684Z</time>
      </trkpt>
      <trkpt lat="47.040322" lon="9.117849">
        <ele>1943.393983</ele>
        <time>2020-09-19T08:05:22.682Z</time>
      </trkpt>
      <trkpt lat="47.040412" lon="9.117830">
        <ele>1945.705680</ele>
        <time>2020-09-19T08:05:36.724Z</time>
      </trkpt>
      <trkpt lat="47.040507" lon="9.117828">
        <ele>1948.121186</ele>
        <time>2020-09-19T08:05:50.683Z</time>
      </trkpt>
      <trkpt lat="47.040592" lon="9.117875">
        <ele>1950.430538</ele>
        <time>2020-09-19T08:06:03.683Z</time>
      </trkpt>
      <trkpt lat="47.040681" lon="9.117931">
        <ele>1952.892498</ele>
        <time>2020-09-19T08:06:18.689Z</time>
      </trkpt>
      <trkpt lat="47.040765" lon="9.117984">
        <ele>1955.217144</ele>
        <time>2020-09-19T08:06:35.684Z</time>
      </trkpt>
      <trkpt lat="47.040852" lon="9.118044">
        <ele>1957.661117</ele>
        <time>2020-09-19T08:06:51.731Z</time>
      </trkpt>
      <trkpt lat="47.040929" lon="9.118114">
        <ele>1959.963983</ele>
        <time>2020-09-19T08:07:09.719Z</time>
      </trkpt>
      <trkpt lat="47.041000" lon="9.118200">
        <ele>1962.304594</ele>
        <time>2020-09-19T08:07:22.683Z</time>
      </trkpt>
      <trkpt lat="47.041076" lon="9.118277">
        <ele>1964.652608</ele>
        <time>2020-09-19T08:07:42.687Z</time>
      </trkpt>
      <trkpt lat="47.041164" lon="9.118339">
        <ele>1967.134412</ele>
        <time>2020-09-19T08:07:59.684Z</time>
      </trkpt>
      <trkpt lat="47.041244" lon="9.118411">
        <ele>1969.520384</ele>
        <time>2020-09-19T08:08:17.684Z</time>
      </trkpt>
      <trkpt lat="47.041322" lon="9.118497">
        <ele>1972.000826</ele>
        <time>2020-09-19T08:08:35.679Z</time>
      </trkpt>
      <trkpt lat="47.041401" lon="9.118571">
        <ele>1974.383626</ele>
        <time>2020-09-19T08:08:53.686Z</time>
      </trkpt>
      <trkpt lat="47.041479" lon="9.118642">
        <ele>1976.717222</ele>
        <time>2020-09-19T08:09:13.738Z</time>
      </trkpt>
      <trkpt lat="47.041565" lon="9.118703">
        <ele>1979.145694</ele>
        <time>2020-09-19T08:09:36.686Z</time>
      </trkpt>
      <trkpt lat="47.041646" lon="9.118763">
        <ele>1981.099327</ele>
        <time>2020-09-19T08:09:55.717Z</time>
      </trkpt>
      <trkpt lat="47.041719" lon="9.118848">
        <ele>1982.961116</ele>
        <time>2020-09-19T08:10:16.683Z</time>
      </trkpt>
      <trkpt lat="47.041803" lon="9.118909">
        <ele>1984.833567</ele>
        <time>2020-09-19T08:10:35.685Z</time>
      </trkpt>
      <trkpt lat="47.041876" lon="9.118998">
        <ele>1986.729683</ele>
        <time>2020-09-19T08:10:50.686Z</time>
      </trkpt>
      <trkpt lat="47.041954" lon="9.119068">
        <ele>1988.556330</ele>
        <time>2020-09-19T08:11:06.741Z</time>
      </trkpt>
      <trkpt lat="47.042023" lon="9.119152">
        <ele>1990.347476</ele>
        <time>2020-09-19T08:11:27.685Z</time>
      </trkpt>
      <trkpt lat="47.042080" lon="9.119260">
        <ele>1992.207267</ele>
        <time>2020-09-19T08:11:46.687Z</time>
      </trkpt>
      <trkpt lat="47.042174" lon="9.119279">
        <ele>1994.102982</ele>
        <time>2020-09-19T08:12:06.683Z</time>
      </trkpt>
      <trkpt lat="47.042263" lon="9.119314">
        <ele>1995.943816</ele>
        <time>2020-09-19T08:12:18.718Z</time>
      </trkpt>
      <trkpt lat="47.042351" lon="9.119365">
        <ele>1997.834072</ele>
        <time>2020-09-19T08:12:36.720Z</time>
      </trkpt>
      <trkpt lat="47.042406" lon="9.119474">
        <ele>1999.680586</ele>
        <time>2020-09-19T08:12:54.722Z</time>
      </trkpt>
      <trkpt lat="47.042482" lon="9.119546">
        <ele>2001.487884</ele>
        <time>2020-09-19T08:13:06.720Z</time>
      </trkpt>
      <trkpt lat="47.042569" lon="9.119597">
        <ele>2003.359571</ele>
        <time>2020-09-19T08:13:21.681Z</time>
      </trkpt>
      <trkpt lat="47.042647" lon="9.119664">
        <ele>2005.165239</ele>
        <time>2020-09-19T08:13:37.683Z</time>
      </trkpt>
      <trkpt lat="47.042734" lon="9.119713">
        <ele>2007.026996</ele>
        <time>2020-09-19T08:13:55.681Z</time>
      </trkpt>
      <trkpt lat="47.042816" lon="9.119769">
        <ele>2008.833955</ele>
        <time>2020-09-19T08:14:09.680Z</time>
      </trkpt>
      <trkpt lat="47.042904" lon="9.119796">
        <ele>2010.630084</ele>
        <time>2020-09-19T08:14:29.681Z</time>
      </trkpt>
      <trkpt lat="47.042975" lon="9.119880">
        <ele>2012.452148</ele>
        <time>2020-09-19T08:14:49.722Z</time>
      </trkpt>
      <trkpt lat="47.043041" lon="9.119972">
        <ele>2014.270794</ele>
        <time>2020-09-19T08:15:06.678Z</time>
      </trkpt>
      <trkpt lat="47.043108" lon="9.120068">
        <ele>2016.284767</ele>
        <time>2020-09-19T08:15:25.682Z</time>
      </trkpt>
      <trkpt lat="47.043190" lon="9.120123">
        <ele>2018.724532</ele>
        <time>2020-09-19T08:15:39.683Z</time>
      </trkpt>
      <trkpt lat="47.043280" lon="9.120098">
        <ele>2021.203232</ele>
        <time>2020-09-19T08:15:57.681Z</time>
      </trkpt>
      <trkpt lat="47.043509" lon="9.120182">
        <ele>2027.590763</ele>
        <time>2020-09-19T08:25:25.792Z</time>
      </trkpt>
      <trkpt lat="47.043597" lon="9.120147">
        <ele>2030.058005</ele>
        <time>2020-09-19T08:25:43.556Z</time>
      </trkpt>
      <trkpt lat="47.043688" lon="9.120169">
        <ele>2032.553710</ele>
        <time>2020-09-19T08:25:53.559Z</time>
      </trkpt>
      <trkpt lat="47.043749" lon="9.120267">
        <ele>2035.001267</ele>
        <time>2020-09-19T08:26:10.552Z</time>
      </trkpt>
      <trkpt lat="47.043836" lon="9.120314">
        <ele>2037.509998</ele>
        <time>2020-09-19T08:26:34.564Z</time>
      </trkpt>
      <trkpt lat="47.043930" lon="9.120293">
        <ele>2040.082999</ele>
        <time>2020-09-19T08:26:53.558Z</time>
      </trkpt>
      <trkpt lat="47.043992" lon="9.120389">
        <ele>2042.521982</ele>
        <time>2020-09-19T08:27:13.556Z</time>
      </trkpt>
      <trkpt lat="47.044074" lon="9.120454">
        <ele>2045.043978</ele>
        <time>2020-09-19T08:27:37.571Z</time>
      </trkpt>
      <trkpt lat="47.044144" lon="9.120546">
        <ele>2047.586849</ele>
        <time>2020-09-19T08:28:00.597Z</time>
      </trkpt>
      <trkpt lat="47.044221" lon="9.120616">
        <ele>2050.037935</ele>
        <time>2020-09-19T08:28:29.558Z</time>
      </trkpt>
      <trkpt lat="47.044250" lon="9.120752">
        <ele>2052.665689</ele>
        <time>2020-09-19T08:28:48.562Z</time>
      </trkpt>
      <trkpt lat="47.044331" lon="9.120836">
        <ele>2055.349663</ele>
        <time>2020-09-19T08:29:05.625Z</time>
      </trkpt>
      <trkpt lat="47.044426" lon="9.120809">
        <ele>2057.968186</ele>
        <time>2020-09-19T08:29:26.562Z</time>
      </trkpt>
      <trkpt lat="47.044514" lon="9.120780">
        <ele>2060.408821</ele>
        <time>2020-09-19T08:29:47.562Z</time>
      </trkpt>
      <trkpt lat="47.044590" lon="9.120858">
        <ele>2062.918473</ele>
        <time>2020-09-19T08:30:34.557Z</time>
      </trkpt>
      <trkpt lat="47.044624" lon="9.120980">
        <ele>2065.505987</ele>
        <time>2020-09-19T08:30:57.558Z</time>
      </trkpt>
      <trkpt lat="47.044713" lon="9.120947">
        <ele>2068.405375</ele>
        <time>2020-09-19T08:31:11.560Z</time>
      </trkpt>
      <trkpt lat="47.044751" lon="9.121069">
        <ele>2071.292455</ele>
        <time>2020-09-19T08:32:15.558Z</time>
      </trkpt>
      <trkpt lat="47.044786" lon="9.121190">
        <ele>2074.121621</ele>
        <time>2020-09-19T08:32:36.559Z</time>
      </trkpt>
      <trkpt lat="47.044824" lon="9.121311">
        <ele>2076.989138</ele>
        <time>2020-09-19T08:32:56.560Z</time>
      </trkpt>
      <trkpt lat="47.044861" lon="9.121432">
        <ele>2079.843576</ele>
        <time>2020-09-19T08:33:19.561Z</time>
      </trkpt>
      <trkpt lat="47.044954" lon="9.121428">
        <ele>2082.782225</ele>
        <time>2020-09-19T08:33:40.540Z</time>
      </trkpt>
      <trkpt lat="47.044988" lon="9.121553">
        <ele>2085.678967</ele>
        <time>2020-09-19T08:35:37.560Z</time>
      </trkpt>
      <trkpt lat="47.045070" lon="9.121616">
        <ele>2088.602389</ele>
        <time>2020-09-19T08:36:03.587Z</time>
      </trkpt>
      <trkpt lat="47.045141" lon="9.121702">
        <ele>2091.510120</ele>
        <time>2020-09-19T08:36:30.560Z</time>
      </trkpt>
      <trkpt lat="47.045187" lon="9.121818">
        <ele>2094.398723</ele>
        <time>2020-09-19T08:36:54.561Z</time>
      </trkpt>
      <trkpt lat="47.045247" lon="9.121916">
        <ele>2097.234235</ele>
        <time>2020-09-19T08:37:20.598Z</time>
      </trkpt>
      <trkpt lat="47.045267" lon="9.122067">
        <ele>2100.544962</ele>
        <time>2020-09-19T08:40:13.566Z</time>
      </trkpt>
      <trkpt lat="47.045328" lon="9.122174">
        <ele>2103.547538</ele>
        <time>2020-09-19T08:40:33.557Z</time>
      </trkpt>
      <trkpt lat="47.045369" lon="9.122292">
        <ele>2106.398295</ele>
        <time>2020-09-19T08:40:53.557Z</time>
      </trkpt>
      <trkpt lat="47.045426" lon="9.122395">
        <ele>2109.254074</ele>
        <time>2020-09-19T08:41:17.557Z</time>
      </trkpt>
      <trkpt lat="47.045517" lon="9.122411">
        <ele>2112.148848</ele>
        <time>2020-09-19T08:41:44.557Z</time>
      </trkpt>
      <trkpt lat="47.045586" lon="9.122499">
        <ele>2115.036184</ele>
        <time>2020-09-19T08:42:02.559Z</time>
      </trkpt>
      <trkpt lat="47.045670" lon="9.122552">
        <ele>2117.924130</ele>
        <time>2020-09-19T08:42:16.560Z</time>
      </trkpt>
      <trkpt lat="47.045725" lon="9.122663">
        <ele>2120.877937</ele>
        <time>2020-09-19T08:42:35.563Z</time>
      </trkpt>
      <trkpt lat="47.045796" lon="9.122757">
        <ele>2124.374515</ele>
        <time>2020-09-19T08:42:54.560Z</time>
      </trkpt>
      <trkpt lat="47.045924" lon="9.122825">
        <ele>2129.438805</ele>
        <time>2020-09-19T08:44:20.560Z</time>
      </trkpt>
      <trkpt lat="47.045992" lon="9.122912">
        <ele>2132.794942</ele>
        <time>2020-09-19T08:44:41.618Z</time>
      </trkpt>
      <trkpt lat="47.046054" lon="9.123012">
        <ele>2136.222234</ele>
        <time>2020-09-19T08:45:00.558Z</time>
      </trkpt>
      <trkpt lat="47.046131" lon="9.123097">
        <ele>2139.806742</ele>
        <time>2020-09-19T08:45:16.561Z</time>
      </trkpt>
      <trkpt lat="47.046201" lon="9.123184">
        <ele>2143.219307</ele>
        <time>2020-09-19T08:45:40.561Z</time>
      </trkpt>
      <trkpt lat="47.046293" lon="9.123219">
        <ele>2146.755042</ele>
        <time>2020-09-19T08:46:00.564Z</time>
      </trkpt>
      <trkpt lat="47.046363" lon="9.123308">
        <ele>2150.200586</ele>
        <time>2020-09-19T08:46:31.558Z</time>
      </trkpt>
      <trkpt lat="47.046449" lon="9.123351">
        <ele>2153.580570</ele>
        <time>2020-09-19T08:46:57.562Z</time>
      </trkpt>
      <trkpt lat="47.046542" lon="9.123342">
        <ele>2157.047890</ele>
        <time>2020-09-19T08:47:22.561Z</time>
      </trkpt>
      <trkpt lat="47.046630" lon="9.123379">
        <ele>2160.453395</ele>
        <time>2020-09-19T08:48:56.562Z</time>
      </trkpt>
      <trkpt lat="47.046720" lon="9.123418">
        <ele>2163.944504</ele>
        <time>2020-09-19T08:49:21.561Z</time>
      </trkpt>
      <trkpt lat="47.046817" lon="9.123543">
        <ele>2168.746877</ele>
        <time>2020-09-19T08:50:08.560Z</time>
      </trkpt>
      <trkpt lat="47.046890" lon="9.123621">
        <ele>2172.106185</ele>
        <time>2020-09-19T08:50:35.561Z</time>
      </trkpt>
      <trkpt lat="47.046927" lon="9.123741">
        <ele>2175.445070</ele>
        <time>2020-09-19T08:51:14.561Z</time>
      </trkpt>
      <trkpt lat="47.047008" lon="9.123804">
        <ele>2178.855485</ele>
        <time>2020-09-19T08:53:10.562Z</time>
      </trkpt>
      <trkpt lat="47.047072" lon="9.123898">
        <ele>2182.223997</ele>
        <time>2020-09-19T08:53:34.559Z</time>
      </trkpt>
      <trkpt lat="47.047133" lon="9.123996">
        <ele>2185.588722</ele>
        <time>2020-09-19T08:54:06.561Z</time>
      </trkpt>
      <trkpt lat="47.047236" lon="9.124045">
        <ele>2189.699196</ele>
        <time>2020-09-19T08:54:47.561Z</time>
      </trkpt>
      <trkpt lat="47.047309" lon="9.124121">
        <ele>2193.213747</ele>
        <time>2020-09-19T08:56:00.561Z</time>
      </trkpt>
      <trkpt lat="47.047395" lon="9.124171">
        <ele>2196.846088</ele>
        <time>2020-09-19T08:56:26.560Z</time>
      </trkpt>
      <trkpt lat="47.047485" lon="9.124181">
        <ele>2200.390269</ele>
        <time>2020-09-19T08:56:50.571Z</time>
      </trkpt>
      <trkpt lat="47.047605" lon="9.124204">
        <ele>2205.142375</ele>
        <time>2020-09-19T08:58:02.561Z</time>
      </trkpt>
      <trkpt lat="47.047699" lon="9.124227">
        <ele>2208.884460</ele>
        <time>2020-09-19T08:58:25.562Z</time>
      </trkpt>
      <trkpt lat="47.047793" lon="9.124227">
        <ele>2212.575597</ele>
        <time>2020-09-19T08:58:50.567Z</time>
      </trkpt>
      <trkpt lat="47.047883" lon="9.124186">
        <ele>2216.276011</ele>
        <time>2020-09-19T08:59:20.565Z</time>
      </trkpt>
      <trkpt lat="47.047921" lon="9.124310">
        <ele>2219.913897</ele>
        <time>2020-09-19T09:01:12.561Z</time>
      </trkpt>
      <trkpt lat="47.047874" lon="9.124423">
        <ele>2223.456133</ele>
        <time>2020-09-19T09:01:32.561Z</time>
      </trkpt>
      <trkpt lat="47.047839" lon="9.124550">
        <ele>2227.121597</ele>
        <time>2020-09-19T09:01:51.569Z</time>
      </trkpt>
      <trkpt lat="47.047977" lon="9.124571">
        <ele>2232.569552</ele>
        <time>2020-09-19T09:02:50.565Z</time>
      </trkpt>
      <trkpt lat="47.048065" lon="9.124540">
        <ele>2236.123238</ele>
        <time>2020-09-19T09:03:12.624Z</time>
      </trkpt>
      <trkpt lat="47.048151" lon="9.124501">
        <ele>2239.657780</ele>
        <time>2020-09-19T09:03:34.561Z</time>
      </trkpt>
      <trkpt lat="47.048243" lon="9.124473">
        <ele>2243.347245</ele>
        <time>2020-09-19T09:04:00.567Z</time>
      </trkpt>
      <trkpt lat="47.048339" lon="9.124474">
        <ele>2247.117011</ele>
        <time>2020-09-19T09:04:17.581Z</time>
      </trkpt>
      <trkpt lat="47.048476" lon="9.124504">
        <ele>2252.556200</ele>
        <time>2020-09-19T09:15:11.957Z</time>
      </trkpt>
      <trkpt lat="47.048485" lon="9.124363">
        <ele>2256.345314</ele>
        <time>2020-09-19T09:15:22.949Z</time>
      </trkpt>
      <trkpt lat="47.048496" lon="9.124223">
        <ele>2259.009541</ele>
        <time>2020-09-19T09:15:32.959Z</time>
      </trkpt>
      <trkpt lat="47.048541" lon="9.124105">
        <ele>2259.672215</ele>
        <time>2020-09-19T09:15:47.960Z</time>
      </trkpt>
      <trkpt lat="47.048536" lon="9.123968">
        <ele>2260.344554</ele>
        <time>2020-09-19T09:16:09.958Z</time>
      </trkpt>
      <trkpt lat="47.048499" lon="9.123795">
        <ele>2261.233133</ele>
        <time>2020-09-19T09:16:39.962Z</time>
      </trkpt>
      <trkpt lat="47.048484" lon="9.123654">
        <ele>2261.932483</ele>
        <time>2020-09-19T09:16:50.961Z</time>
      </trkpt>
      <trkpt lat="47.048470" lon="9.123524">
        <ele>2262.577463</ele>
        <time>2020-09-19T09:17:03.959Z</time>
      </trkpt>
      <trkpt lat="47.048478" lon="9.123385">
        <ele>2263.261067</ele>
        <time>2020-09-19T09:17:25.954Z</time>
      </trkpt>
      <trkpt lat="47.048492" lon="9.123186">
        <ele>2264.241463</ele>
        <time>2020-09-19T09:18:32.963Z</time>
      </trkpt>
      <trkpt lat="47.048492" lon="9.123046">
        <ele>2264.927541</ele>
        <time>2020-09-19T09:18:45.964Z</time>
      </trkpt>
      <trkpt lat="47.048463" lon="9.122921">
        <ele>2265.574646</ele>
        <time>2020-09-19T09:18:57.960Z</time>
      </trkpt>
      <trkpt lat="47.048427" lon="9.122797">
        <ele>2266.235176</ele>
        <time>2020-09-19T09:19:10.970Z</time>
      </trkpt>
      <trkpt lat="47.048375" lon="9.122686">
        <ele>2266.895300</ele>
        <time>2020-09-19T09:19:20.965Z</time>
      </trkpt>
      <trkpt lat="47.048358" lon="9.122548">
        <ele>2267.582543</ele>
        <time>2020-09-19T09:19:29.961Z</time>
      </trkpt>
      <trkpt lat="47.048365" lon="9.122305">
        <ele>2268.774445</ele>
        <time>2020-09-19T09:20:39.937Z</time>
      </trkpt>
      <trkpt lat="47.048376" lon="9.122174">
        <ele>2269.421276</ele>
        <time>2020-09-19T09:20:51.958Z</time>
      </trkpt>
      <trkpt lat="47.048354" lon="9.122031">
        <ele>2270.139699</ele>
        <time>2020-09-19T09:20:59.957Z</time>
      </trkpt>
      <trkpt lat="47.048388" lon="9.121895">
        <ele>2270.849620</ele>
        <time>2020-09-19T09:21:08.961Z</time>
      </trkpt>
      <trkpt lat="47.048444" lon="9.121790">
        <ele>2271.503062</ele>
        <time>2020-09-19T09:21:16.945Z</time>
      </trkpt>
      <trkpt lat="47.048492" lon="9.121670">
        <ele>2271.622600</ele>
        <time>2020-09-19T09:21:27.958Z</time>
      </trkpt>
      <trkpt lat="47.048545" lon="9.121558">
        <ele>2271.519916</ele>
        <time>2020-09-19T09:21:35.956Z</time>
      </trkpt>
      <trkpt lat="47.048529" lon="9.121426">
        <ele>2271.418957</ele>
        <time>2020-09-19T09:21:56.957Z</time>
      </trkpt>
      <trkpt lat="47.048506" lon="9.121291">
        <ele>2271.314169</ele>
        <time>2020-09-19T09:22:09.955Z</time>
      </trkpt>
      <trkpt lat="47.048515" lon="9.121160">
        <ele>2271.215022</ele>
        <time>2020-09-19T09:22:18.957Z</time>
      </trkpt>
      <trkpt lat="47.048507" lon="9.121016">
        <ele>2271.106227</ele>
        <time>2020-09-19T09:22:28.952Z</time>
      </trkpt>
      <trkpt lat="47.048507" lon="9.120873">
        <ele>2270.998544</ele>
        <time>2020-09-19T09:22:42.953Z</time>
      </trkpt>
      <trkpt lat="47.048501" lon="9.120731">
        <ele>2270.891409</ele>
        <time>2020-09-19T09:22:52.945Z</time>
      </trkpt>
      <trkpt lat="47.048475" lon="9.120599">
        <ele>2270.787940</ele>
        <time>2020-09-19T09:23:03.949Z</time>
      </trkpt>
      <trkpt lat="47.048410" lon="9.120490">
        <ele>2270.678865</ele>
        <time>2020-09-19T09:23:14.950Z</time>
      </trkpt>
      <trkpt lat="47.048353" lon="9.120378">
        <ele>2270.573598</ele>
        <time>2020-09-19T09:23:26.952Z</time>
      </trkpt>
      <trkpt lat="47.048266" lon="9.120347">
        <ele>2270.474657</ele>
        <time>2020-09-19T09:23:38.954Z</time>
      </trkpt>
      <trkpt lat="47.048184" lon="9.120272">
        <ele>2270.367876</ele>
        <time>2020-09-19T09:23:49.947Z</time>
      </trkpt>
      <trkpt lat="47.048142" lon="9.120152">
        <ele>2270.266289</ele>
        <time>2020-09-19T09:23:59.953Z</time>
      </trkpt>
      <trkpt lat="47.048077" lon="9.120053">
        <ele>2270.162761</ele>
        <time>2020-09-19T09:24:10.955Z</time>
      </trkpt>
      <trkpt lat="47.048004" lon="9.119974">
        <ele>2270.062523</ele>
        <time>2020-09-19T09:24:19.953Z</time>
      </trkpt>
      <trkpt lat="47.047983" lon="9.119830">
        <ele>2269.951631</ele>
        <time>2020-09-19T09:24:29.951Z</time>
      </trkpt>
      <trkpt lat="47.047940" lon="9.119707">
        <ele>2269.847529</ele>
        <time>2020-09-19T09:24:41.943Z</time>
      </trkpt>
      <trkpt lat="47.047882" lon="9.119588">
        <ele>2269.737353</ele>
        <time>2020-09-19T09:24:51.950Z</time>
      </trkpt>
      <trkpt lat="47.047829" lon="9.119480">
        <ele>2269.969271</ele>
        <time>2020-09-19T09:25:01.951Z</time>
      </trkpt>
      <trkpt lat="47.047797" lon="9.119350">
        <ele>2270.341325</ele>
        <time>2020-09-19T09:25:12.956Z</time>
      </trkpt>
      <trkpt lat="47.047736" lon="9.119234">
        <ele>2270.735734</ele>
        <time>2020-09-19T09:25:22.944Z</time>
      </trkpt>
      <trkpt lat="47.047733" lon="9.119094">
        <ele>2271.112759</ele>
        <time>2020-09-19T09:25:32.953Z</time>
      </trkpt>
      <trkpt lat="47.047731" lon="9.118951">
        <ele>2271.497753</ele>
        <time>2020-09-19T09:25:43.938Z</time>
      </trkpt>
      <trkpt lat="47.047717" lon="9.118815">
        <ele>2271.867979</ele>
        <time>2020-09-19T09:25:53.957Z</time>
      </trkpt>
      <trkpt lat="47.047678" lon="9.118693">
        <ele>2272.230710</ele>
        <time>2020-09-19T09:26:03.957Z</time>
      </trkpt>
      <trkpt lat="47.047651" lon="9.118559">
        <ele>2272.606838</ele>
        <time>2020-09-19T09:26:13.955Z</time>
      </trkpt>
      <trkpt lat="47.047612" lon="9.118430">
        <ele>2272.986712</ele>
        <time>2020-09-19T09:26:23.970Z</time>
      </trkpt>
      <trkpt lat="47.047565" lon="9.118311">
        <ele>2273.356945</ele>
        <time>2020-09-19T09:26:33.956Z</time>
      </trkpt>
      <trkpt lat="47.047508" lon="9.118206">
        <ele>2273.718304</ele>
        <time>2020-09-19T09:26:42.956Z</time>
      </trkpt>
      <trkpt lat="47.047438" lon="9.118114">
        <ele>2274.089503</ele>
        <time>2020-09-19T09:26:54.956Z</time>
      </trkpt>
      <trkpt lat="47.047412" lon="9.117981">
        <ele>2274.461944</ele>
        <time>2020-09-19T09:27:09.956Z</time>
      </trkpt>
      <trkpt lat="47.047343" lon="9.117886">
        <ele>2274.835688</ele>
        <time>2020-09-19T09:27:23.994Z</time>
      </trkpt>
      <trkpt lat="47.047288" lon="9.117771">
        <ele>2275.213875</ele>
        <time>2020-09-19T09:27:33.955Z</time>
      </trkpt>
      <trkpt lat="47.047250" lon="9.117646">
        <ele>2275.582308</ele>
        <time>2020-09-19T09:27:48.954Z</time>
      </trkpt>
      <trkpt lat="47.047195" lon="9.117536">
        <ele>2275.949561</ele>
        <time>2020-09-19T09:27:59.981Z</time>
      </trkpt>
      <trkpt lat="47.047154" lon="9.117416">
        <ele>2276.310900</ele>
        <time>2020-09-19T09:28:12.955Z</time>
      </trkpt>
      <trkpt lat="47.047115" lon="9.117288">
        <ele>2276.688318</ele>
        <time>2020-09-19T09:28:24.955Z</time>
      </trkpt>
      <trkpt lat="47.047092" lon="9.117155">
        <ele>2277.259613</ele>
        <time>2020-09-19T09:28:38.944Z</time>
      </trkpt>
      <trkpt lat="47.047039" lon="9.117038">
        <ele>2277.952438</ele>
        <time>2020-09-19T09:28:51.952Z</time>
      </trkpt>
      <trkpt lat="47.047001" lon="9.116918">
        <ele>2278.604975</ele>
        <time>2020-09-19T09:29:04.956Z</time>
      </trkpt>
      <trkpt lat="47.046966" lon="9.116786">
        <ele>2279.303454</ele>
        <time>2020-09-19T09:29:19.954Z</time>
      </trkpt>
      <trkpt lat="47.046931" lon="9.116658">
        <ele>2279.983588</ele>
        <time>2020-09-19T09:29:32.956Z</time>
      </trkpt>
      <trkpt lat="47.046886" lon="9.116540">
        <ele>2280.650416</ele>
        <time>2020-09-19T09:29:43.956Z</time>
      </trkpt>
      <trkpt lat="47.046832" lon="9.116431">
        <ele>2281.314981</ele>
        <time>2020-09-19T09:29:58.960Z</time>
      </trkpt>
      <trkpt lat="47.046780" lon="9.116313">
        <ele>2282.007963</ele>
        <time>2020-09-19T09:30:12.955Z</time>
      </trkpt>
      <trkpt lat="47.046714" lon="9.116219">
        <ele>2282.673559</ele>
        <time>2020-09-19T09:30:31.956Z</time>
      </trkpt>
      <trkpt lat="47.046654" lon="9.116111">
        <ele>2283.360724</ele>
        <time>2020-09-19T09:30:43.946Z</time>
      </trkpt>
      <trkpt lat="47.046597" lon="9.116001">
        <ele>2284.042203</ele>
        <time>2020-09-19T09:30:52.957Z</time>
      </trkpt>
      <trkpt lat="47.046528" lon="9.115916">
        <ele>2284.694166</ele>
        <time>2020-09-19T09:31:04.958Z</time>
      </trkpt>
      <trkpt lat="47.046441" lon="9.115861">
        <ele>2285.379722</ele>
        <time>2020-09-19T09:31:14.958Z</time>
      </trkpt>
      <trkpt lat="47.046367" lon="9.115778">
        <ele>2286.053764</ele>
        <time>2020-09-19T09:31:26.958Z</time>
      </trkpt>
      <trkpt lat="47.046348" lon="9.115649">
        <ele>2286.704601</ele>
        <time>2020-09-19T09:31:40.960Z</time>
      </trkpt>
      <trkpt lat="47.046262" lon="9.115569">
        <ele>2287.441488</ele>
        <time>2020-09-19T09:32:56.942Z</time>
      </trkpt>
      <trkpt lat="47.046221" lon="9.115450">
        <ele>2288.099071</ele>
        <time>2020-09-19T09:33:07.964Z</time>
      </trkpt>
      <trkpt lat="47.046166" lon="9.115340">
        <ele>2288.771891</ele>
        <time>2020-09-19T09:33:17.958Z</time>
      </trkpt>
      <trkpt lat="47.046102" lon="9.115235">
        <ele>2289.466614</ele>
        <time>2020-09-19T09:33:28.960Z</time>
      </trkpt>
      <trkpt lat="47.046025" lon="9.115159">
        <ele>2290.350598</ele>
        <time>2020-09-19T09:33:39.961Z</time>
      </trkpt>
      <trkpt lat="47.045962" lon="9.115059">
        <ele>2291.487869</ele>
        <time>2020-09-19T09:33:49.962Z</time>
      </trkpt>
      <trkpt lat="47.045881" lon="9.114989">
        <ele>2292.639833</ele>
        <time>2020-09-19T09:33:59.960Z</time>
      </trkpt>
      <trkpt lat="47.045810" lon="9.114902">
        <ele>2293.773351</ele>
        <time>2020-09-19T09:34:09.971Z</time>
      </trkpt>
      <trkpt lat="47.045745" lon="9.114809">
        <ele>2294.885839</ele>
        <time>2020-09-19T09:34:21.968Z</time>
      </trkpt>
      <trkpt lat="47.045687" lon="9.114705">
        <ele>2296.008085</ele>
        <time>2020-09-19T09:34:35.963Z</time>
      </trkpt>
      <trkpt lat="47.045656" lon="9.114577">
        <ele>2297.142468</ele>
        <time>2020-09-19T09:34:48.963Z</time>
      </trkpt>
      <trkpt lat="47.045607" lon="9.114456">
        <ele>2298.317858</ele>
        <time>2020-09-19T09:35:05.961Z</time>
      </trkpt>
      <trkpt lat="47.045534" lon="9.114375">
        <ele>2299.439388</ele>
        <time>2020-09-19T09:35:17.960Z</time>
      </trkpt>
      <trkpt lat="47.045477" lon="9.114205">
        <ele>2301.021547</ele>
        <time>2020-09-19T09:37:22.964Z</time>
      </trkpt>
      <trkpt lat="47.045405" lon="9.114121">
        <ele>2302.148744</ele>
        <time>2020-09-19T09:37:33.966Z</time>
      </trkpt>
      <trkpt lat="47.045324" lon="9.114048">
        <ele>2303.313624</ele>
        <time>2020-09-19T09:37:43.966Z</time>
      </trkpt>
      <trkpt lat="47.045242" lon="9.113981">
        <ele>2304.463775</ele>
        <time>2020-09-19T09:37:52.963Z</time>
      </trkpt>
      <trkpt lat="47.045152" lon="9.113953">
        <ele>2305.591221</ele>
        <time>2020-09-19T09:38:01.964Z</time>
      </trkpt>
      <trkpt lat="47.045055" lon="9.113914">
        <ele>2306.823744</ele>
        <time>2020-09-19T09:38:13.966Z</time>
      </trkpt>
      <trkpt lat="47.044975" lon="9.113850">
        <ele>2307.940340</ele>
        <time>2020-09-19T09:38:21.967Z</time>
      </trkpt>
      <trkpt lat="47.044942" lon="9.113723">
        <ele>2309.075372</ele>
        <time>2020-09-19T09:38:31.968Z</time>
      </trkpt>
      <trkpt lat="47.044859" lon="9.113647">
        <ele>2310.274280</ele>
        <time>2020-09-19T09:38:40.970Z</time>
      </trkpt>
      <trkpt lat="47.044807" lon="9.113533">
        <ele>2311.419864</ele>
        <time>2020-09-19T09:38:49.964Z</time>
      </trkpt>
      <trkpt lat="47.044775" lon="9.113403">
        <ele>2312.210074</ele>
        <time>2020-09-19T09:39:07.982Z</time>
      </trkpt>
      <trkpt lat="47.044760" lon="9.113273">
        <ele>2312.738737</ele>
        <time>2020-09-19T09:39:20.963Z</time>
      </trkpt>
      <trkpt lat="47.044699" lon="9.113166">
        <ele>2313.298103</ele>
        <time>2020-09-19T09:39:37.969Z</time>
      </trkpt>
      <trkpt lat="47.044636" lon="9.113069">
        <ele>2313.835394</ele>
        <time>2020-09-19T09:39:56.959Z</time>
      </trkpt>
      <trkpt lat="47.044577" lon="9.112925">
        <ele>2314.509105</ele>
        <time>2020-09-19T09:41:03.973Z</time>
      </trkpt>
      <trkpt lat="47.044512" lon="9.112826">
        <ele>2315.060328</ele>
        <time>2020-09-19T09:41:20.961Z</time>
      </trkpt>
      <trkpt lat="47.044527" lon="9.112690">
        <ele>2315.612728</ele>
        <time>2020-09-19T09:41:39.964Z</time>
      </trkpt>
      <trkpt lat="47.044516" lon="9.112557">
        <ele>2316.149916</ele>
        <time>2020-09-19T09:42:22.972Z</time>
      </trkpt>
      <trkpt lat="47.044443" lon="9.112475">
        <ele>2316.690844</ele>
        <time>2020-09-19T09:42:50.958Z</time>
      </trkpt>
      <trkpt lat="47.044384" lon="9.112368">
        <ele>2317.242735</ele>
        <time>2020-09-19T09:44:06.972Z</time>
      </trkpt>
      <trkpt lat="47.044321" lon="9.112266">
        <ele>2317.794713</ele>
        <time>2020-09-19T09:44:34.956Z</time>
      </trkpt>
      <trkpt lat="47.044401" lon="9.112204">
        <ele>2318.327049</ele>
        <time>2020-09-19T10:27:41.709Z</time>
      </trkpt>
      <trkpt lat="47.044374" lon="9.112075">
        <ele>2318.868135</ele>
        <time>2020-09-19T10:28:00.709Z</time>
      </trkpt>
      <trkpt lat="47.044432" lon="9.111973">
        <ele>2319.400801</ele>
        <time>2020-09-19T10:28:23.714Z</time>
      </trkpt>
      <trkpt lat="47.044514" lon="9.111901">
        <ele>2319.963066</ele>
        <time>2020-09-19T10:28:41.709Z</time>
      </trkpt>
      <trkpt lat="47.044579" lon="9.111789">
        <ele>2320.552936</ele>
        <time>2020-09-19T10:29:13.709Z</time>
      </trkpt>
      <trkpt lat="47.044627" lon="9.111676">
        <ele>2321.086839</ele>
        <time>2020-09-19T10:29:24.708Z</time>
      </trkpt>
      <trkpt lat="47.044652" lon="9.111537">
        <ele>2321.663256</ele>
        <time>2020-09-19T10:29:34.707Z</time>
      </trkpt>
      <trkpt lat="47.044700" lon="9.111422">
        <ele>2322.203981</ele>
        <time>2020-09-19T10:29:45.710Z</time>
      </trkpt>
      <trkpt lat="47.044755" lon="9.111316">
        <ele>2322.248258</ele>
        <time>2020-09-19T10:29:53.708Z</time>
      </trkpt>
      <trkpt lat="47.044808" lon="9.111207">
        <ele>2321.849069</ele>
        <time>2020-09-19T10:30:04.713Z</time>
      </trkpt>
      <trkpt lat="47.044858" lon="9.111086">
        <ele>2321.427208</ele>
        <time>2020-09-19T10:30:11.707Z</time>
      </trkpt>
      <trkpt lat="47.044908" lon="9.110976">
        <ele>2321.033020</ele>
        <time>2020-09-19T10:30:18.713Z</time>
      </trkpt>
      <trkpt lat="47.044953" lon="9.110860">
        <ele>2320.635096</ele>
        <time>2020-09-19T10:30:25.713Z</time>
      </trkpt>
      <trkpt lat="47.044987" lon="9.110730">
        <ele>2320.219984</ele>
        <time>2020-09-19T10:30:35.707Z</time>
      </trkpt>
      <trkpt lat="47.045011" lon="9.110593">
        <ele>2319.798287</ele>
        <time>2020-09-19T10:30:45.708Z</time>
      </trkpt>
      <trkpt lat="47.045033" lon="9.110454">
        <ele>2319.372879</ele>
        <time>2020-09-19T10:31:02.756Z</time>
      </trkpt>
      <trkpt lat="47.045064" lon="9.110326">
        <ele>2318.967910</ele>
        <time>2020-09-19T10:31:16.707Z</time>
      </trkpt>
      <trkpt lat="47.045127" lon="9.110221">
        <ele>2318.550842</ele>
        <time>2020-09-19T10:31:36.707Z</time>
      </trkpt>
      <trkpt lat="47.045026" lon="9.110373">
        <ele>2317.917936</ele>
        <time>2020-09-19T10:40:24.713Z</time>
      </trkpt>
      <trkpt lat="47.045005" lon="9.110505">
        <ele>2317.513844</ele>
        <time>2020-09-19T10:40:33.698Z</time>
      </trkpt>
      <trkpt lat="47.044990" lon="9.110646">
        <ele>2317.088412</ele>
        <time>2020-09-19T10:40:46.690Z</time>
      </trkpt>
      <trkpt lat="47.044972" lon="9.110783">
        <ele>2316.672474</ele>
        <time>2020-09-19T10:40:56.756Z</time>
      </trkpt>
      <trkpt lat="47.044929" lon="9.110906">
        <ele>2316.260354</ele>
        <time>2020-09-19T10:41:06.712Z</time>
      </trkpt>
      <trkpt lat="47.044882" lon="9.111027">
        <ele>2315.845147</ele>
        <time>2020-09-19T10:41:16.726Z</time>
      </trkpt>
      <trkpt lat="47.044830" lon="9.111147">
        <ele>2315.421202</ele>
        <time>2020-09-19T10:41:26.710Z</time>
      </trkpt>
      <trkpt lat="47.044776" lon="9.111264">
        <ele>2314.999933</ele>
        <time>2020-09-19T10:41:34.712Z</time>
      </trkpt>
      <trkpt lat="47.044744" lon="9.111398">
        <ele>2314.564770</ele>
        <time>2020-09-19T10:41:43.713Z</time>
      </trkpt>
      <trkpt lat="47.044742" lon="9.111536">
        <ele>2313.736770</ele>
        <time>2020-09-19T10:41:54.709Z</time>
      </trkpt>
      <trkpt lat="47.044723" lon="9.111666">
        <ele>2312.939211</ele>
        <time>2020-09-19T10:42:04.711Z</time>
      </trkpt>
      <trkpt lat="47.044726" lon="9.111800">
        <ele>2312.134959</ele>
        <time>2020-09-19T10:42:15.712Z</time>
      </trkpt>
      <trkpt lat="47.044748" lon="9.111930">
        <ele>2311.331447</ele>
        <time>2020-09-19T10:42:27.711Z</time>
      </trkpt>
      <trkpt lat="47.044771" lon="9.112064">
        <ele>2310.502521</ele>
        <time>2020-09-19T10:42:40.716Z</time>
      </trkpt>
      <trkpt lat="47.044787" lon="9.112196">
        <ele>2309.698272</ele>
        <time>2020-09-19T10:42:51.706Z</time>
      </trkpt>
      <trkpt lat="47.044808" lon="9.112329">
        <ele>2308.879315</ele>
        <time>2020-09-19T10:43:03.707Z</time>
      </trkpt>
      <trkpt lat="47.044822" lon="9.112469">
        <ele>2308.030512</ele>
        <time>2020-09-19T10:43:16.701Z</time>
      </trkpt>
      <trkpt lat="47.044832" lon="9.112609">
        <ele>2307.186102</ele>
        <time>2020-09-19T10:43:25.713Z</time>
      </trkpt>
      <trkpt lat="47.044830" lon="9.112748">
        <ele>2306.352106</ele>
        <time>2020-09-19T10:43:35.709Z</time>
      </trkpt>
      <trkpt lat="47.044833" lon="9.112881">
        <ele>2305.553851</ele>
        <time>2020-09-19T10:43:44.708Z</time>
      </trkpt>
      <trkpt lat="47.044838" lon="9.113013">
        <ele>2304.760809</ele>
        <time>2020-09-19T10:43:51.710Z</time>
      </trkpt>
      <trkpt lat="47.044844" lon="9.113149">
        <ele>2303.943287</ele>
        <time>2020-09-19T10:44:00.715Z</time>
      </trkpt>
      <trkpt lat="47.044854" lon="9.113291">
        <ele>2303.086945</ele>
        <time>2020-09-19T10:44:08.707Z</time>
      </trkpt>
      <trkpt lat="47.044872" lon="9.113437">
        <ele>2302.196926</ele>
        <time>2020-09-19T10:44:16.712Z</time>
      </trkpt>
      <trkpt lat="47.044896" lon="9.113570">
        <ele>2301.371609</ele>
        <time>2020-09-19T10:44:24.709Z</time>
      </trkpt>
      <trkpt lat="47.044891" lon="9.113710">
        <ele>2300.530648</ele>
        <time>2020-09-19T10:44:33.710Z</time>
      </trkpt>
      <trkpt lat="47.044915" lon="9.113847">
        <ele>2299.682114</ele>
        <time>2020-09-19T10:44:42.709Z</time>
      </trkpt>
      <trkpt lat="47.044994" lon="9.113930">
        <ele>2298.826819</ele>
        <time>2020-09-19T10:44:50.721Z</time>
      </trkpt>
      <trkpt lat="47.045078" lon="9.113985">
        <ele>2297.863254</ele>
        <time>2020-09-19T10:44:58.711Z</time>
      </trkpt>
      <trkpt lat="47.045170" lon="9.114034">
        <ele>2296.822006</ele>
        <time>2020-09-19T10:45:07.711Z</time>
      </trkpt>
      <trkpt lat="47.045256" lon="9.114081">
        <ele>2295.845674</ele>
        <time>2020-09-19T10:45:15.710Z</time>
      </trkpt>
      <trkpt lat="47.045340" lon="9.114133">
        <ele>2294.875748</ele>
        <time>2020-09-19T10:45:23.754Z</time>
      </trkpt>
      <trkpt lat="47.045416" lon="9.114205">
        <ele>2293.913347</ele>
        <time>2020-09-19T10:45:32.711Z</time>
      </trkpt>
      <trkpt lat="47.045484" lon="9.114313">
        <ele>2292.847333</ele>
        <time>2020-09-19T10:45:41.708Z</time>
      </trkpt>
      <trkpt lat="47.045536" lon="9.114437">
        <ele>2291.791798</ele>
        <time>2020-09-19T10:45:52.709Z</time>
      </trkpt>
      <trkpt lat="47.045607" lon="9.114529">
        <ele>2290.784125</ele>
        <time>2020-09-19T10:46:01.718Z</time>
      </trkpt>
      <trkpt lat="47.045649" lon="9.114657">
        <ele>2289.754207</ele>
        <time>2020-09-19T10:46:10.726Z</time>
      </trkpt>
      <trkpt lat="47.045685" lon="9.114784">
        <ele>2288.757033</ele>
        <time>2020-09-19T10:46:19.709Z</time>
      </trkpt>
      <trkpt lat="47.045755" lon="9.114875">
        <ele>2287.762133</ele>
        <time>2020-09-19T10:46:27.720Z</time>
      </trkpt>
      <trkpt lat="47.045832" lon="9.114967">
        <ele>2286.705767</ele>
        <time>2020-09-19T10:46:36.711Z</time>
      </trkpt>
      <trkpt lat="47.045914" lon="9.115030">
        <ele>2285.721055</ele>
        <time>2020-09-19T10:46:43.713Z</time>
      </trkpt>
      <trkpt lat="47.046000" lon="9.115094">
        <ele>2284.695194</ele>
        <time>2020-09-19T10:46:51.699Z</time>
      </trkpt>
      <trkpt lat="47.046093" lon="9.115084">
        <ele>2283.703123</ele>
        <time>2020-09-19T10:47:01.687Z</time>
      </trkpt>
      <trkpt lat="47.046179" lon="9.115148">
        <ele>2282.677262</ele>
        <time>2020-09-19T10:47:11.718Z</time>
      </trkpt>
      <trkpt lat="47.046261" lon="9.115200">
        <ele>2281.726908</ele>
        <time>2020-09-19T10:47:20.712Z</time>
      </trkpt>
      <trkpt lat="47.046351" lon="9.115227">
        <ele>2280.749604</ele>
        <time>2020-09-19T10:47:28.709Z</time>
      </trkpt>
      <trkpt lat="47.046444" lon="9.115203">
        <ele>2279.745004</ele>
        <time>2020-09-19T10:47:39.710Z</time>
      </trkpt>
      <trkpt lat="47.046529" lon="9.115158">
        <ele>2278.433644</ele>
        <time>2020-09-19T10:47:47.709Z</time>
      </trkpt>
      <trkpt lat="47.046617" lon="9.115118">
        <ele>2277.042973</ele>
        <time>2020-09-19T10:47:56.710Z</time>
      </trkpt>
      <trkpt lat="47.046694" lon="9.115033">
        <ele>2275.588488</ele>
        <time>2020-09-19T10:48:05.708Z</time>
      </trkpt>
      <trkpt lat="47.046786" lon="9.115002">
        <ele>2274.163557</ele>
        <time>2020-09-19T10:48:15.708Z</time>
      </trkpt>
      <trkpt lat="47.046859" lon="9.114901">
        <ele>2272.649070</ele>
        <time>2020-09-19T10:48:25.710Z</time>
      </trkpt>
      <trkpt lat="47.046954" lon="9.114876">
        <ele>2271.192116</ele>
        <time>2020-09-19T10:48:37.707Z</time>
      </trkpt>
      <trkpt lat="47.047030" lon="9.114797">
        <ele>2269.786221</ele>
        <time>2020-09-19T10:48:46.709Z</time>
      </trkpt>
      <trkpt lat="47.047128" lon="9.114754">
        <ele>2268.242149</ele>
        <time>2020-09-19T10:48:54.716Z</time>
      </trkpt>
      <trkpt lat="47.047216" lon="9.114709">
        <ele>2266.835404</ele>
        <time>2020-09-19T10:49:03.712Z</time>
      </trkpt>
      <trkpt lat="47.047301" lon="9.114651">
        <ele>2265.420367</ele>
        <time>2020-09-19T10:49:16.709Z</time>
      </trkpt>
      <trkpt lat="47.047386" lon="9.114594">
        <ele>2264.009635</ele>
        <time>2020-09-19T10:49:26.709Z</time>
      </trkpt>
      <trkpt lat="47.047482" lon="9.114603">
        <ele>2262.557505</ele>
        <time>2020-09-19T10:49:36.709Z</time>
      </trkpt>
      <trkpt lat="47.047577" lon="9.114626">
        <ele>2261.104041</ele>
        <time>2020-09-19T10:49:52.755Z</time>
      </trkpt>
      <trkpt lat="47.047680" lon="9.114626">
        <ele>2259.549195</ele>
        <time>2020-09-19T10:50:03.707Z</time>
      </trkpt>
      <trkpt lat="47.047774" lon="9.114587">
        <ele>2258.074596</ele>
        <time>2020-09-19T10:50:11.707Z</time>
      </trkpt>
      <trkpt lat="47.047863" lon="9.114532">
        <ele>2256.616837</ele>
        <time>2020-09-19T10:50:22.712Z</time>
      </trkpt>
      <trkpt lat="47.047949" lon="9.114472">
        <ele>2255.179389</ele>
        <time>2020-09-19T10:51:00.711Z</time>
      </trkpt>
      <trkpt lat="47.048045" lon="9.114448">
        <ele>2253.709336</ele>
        <time>2020-09-19T10:51:08.715Z</time>
      </trkpt>
      <trkpt lat="47.048146" lon="9.114448">
        <ele>2252.270512</ele>
        <time>2020-09-19T10:51:21.709Z</time>
      </trkpt>
      <trkpt lat="47.048246" lon="9.114459">
        <ele>2251.215945</ele>
        <time>2020-09-19T10:51:30.706Z</time>
      </trkpt>
      <trkpt lat="47.048333" lon="9.114505">
        <ele>2250.243474</ele>
        <time>2020-09-19T10:51:38.709Z</time>
      </trkpt>
      <trkpt lat="47.048412" lon="9.114577">
        <ele>2249.265536</ele>
        <time>2020-09-19T10:51:53.708Z</time>
      </trkpt>
      <trkpt lat="47.048475" lon="9.114678">
        <ele>2248.284365</ele>
        <time>2020-09-19T10:52:02.707Z</time>
      </trkpt>
      <trkpt lat="47.048503" lon="9.114804">
        <ele>2247.334709</ele>
        <time>2020-09-19T10:52:10.701Z</time>
      </trkpt>
      <trkpt lat="47.048541" lon="9.114931">
        <ele>2246.340815</ele>
        <time>2020-09-19T10:52:18.712Z</time>
      </trkpt>
      <trkpt lat="47.048576" lon="9.115053">
        <ele>2245.392299</ele>
        <time>2020-09-19T10:52:27.714Z</time>
      </trkpt>
      <trkpt lat="47.048620" lon="9.115173">
        <ele>2244.415847</ele>
        <time>2020-09-19T10:52:39.707Z</time>
      </trkpt>
      <trkpt lat="47.048662" lon="9.115290">
        <ele>2243.468255</ele>
        <time>2020-09-19T10:52:52.706Z</time>
      </trkpt>
      <trkpt lat="47.048657" lon="9.115423">
        <ele>2242.513797</ele>
        <time>2020-09-19T10:53:07.705Z</time>
      </trkpt>
      <trkpt lat="47.048721" lon="9.115519">
        <ele>2241.551424</ele>
        <time>2020-09-19T10:53:14.708Z</time>
      </trkpt>
      <trkpt lat="47.048788" lon="9.115609">
        <ele>2240.596267</ele>
        <time>2020-09-19T10:53:23.707Z</time>
      </trkpt>
      <trkpt lat="47.048849" lon="9.115718">
        <ele>2239.585564</ele>
        <time>2020-09-19T10:53:32.709Z</time>
      </trkpt>
      <trkpt lat="47.048911" lon="9.115820">
        <ele>2238.606132</ele>
        <time>2020-09-19T10:53:42.707Z</time>
      </trkpt>
      <trkpt lat="47.048998" lon="9.115866">
        <ele>2237.633662</ele>
        <time>2020-09-19T10:53:51.708Z</time>
      </trkpt>
      <trkpt lat="47.049091" lon="9.115903">
        <ele>2236.620360</ele>
        <time>2020-09-19T10:53:59.739Z</time>
      </trkpt>
      <trkpt lat="47.049174" lon="9.115965">
        <ele>2235.640963</ele>
        <time>2020-09-19T10:54:07.707Z</time>
      </trkpt>
      <trkpt lat="47.049254" lon="9.116043">
        <ele>2234.630940</ele>
        <time>2020-09-19T10:54:17.714Z</time>
      </trkpt>
      <trkpt lat="47.049314" lon="9.116146">
        <ele>2233.659951</ele>
        <time>2020-09-19T10:54:26.709Z</time>
      </trkpt>
      <trkpt lat="47.049379" lon="9.116243">
        <ele>2232.246156</ele>
        <time>2020-09-19T10:54:34.738Z</time>
      </trkpt>
      <trkpt lat="47.049448" lon="9.116330">
        <ele>2230.805578</ele>
        <time>2020-09-19T10:54:49.705Z</time>
      </trkpt>
      <trkpt lat="47.049499" lon="9.116455">
        <ele>2229.233469</ele>
        <time>2020-09-19T10:54:58.745Z</time>
      </trkpt>
      <trkpt lat="47.049567" lon="9.116557">
        <ele>2227.693669</ele>
        <time>2020-09-19T10:55:07.709Z</time>
      </trkpt>
      <trkpt lat="47.049653" lon="9.116517">
        <ele>2226.264994</ele>
        <time>2020-09-19T10:55:17.706Z</time>
      </trkpt>
      <trkpt lat="47.049748" lon="9.116528">
        <ele>2224.755873</ele>
        <time>2020-09-19T10:55:26.712Z</time>
      </trkpt>
      <trkpt lat="47.049839" lon="9.116555">
        <ele>2223.285619</ele>
        <time>2020-09-19T10:55:34.726Z</time>
      </trkpt>
      <trkpt lat="47.049936" lon="9.116562">
        <ele>2221.747645</ele>
        <time>2020-09-19T10:55:51.729Z</time>
      </trkpt>
      <trkpt lat="47.050025" lon="9.116588">
        <ele>2220.310567</ele>
        <time>2020-09-19T10:56:01.713Z</time>
      </trkpt>
      <trkpt lat="47.050114" lon="9.116621">
        <ele>2218.856856</ele>
        <time>2020-09-19T10:56:11.705Z</time>
      </trkpt>
      <trkpt lat="47.050201" lon="9.116663">
        <ele>2217.406480</ele>
        <time>2020-09-19T10:56:30.706Z</time>
      </trkpt>
      <trkpt lat="47.050273" lon="9.116751">
        <ele>2215.922669</ele>
        <time>2020-09-19T10:56:39.723Z</time>
      </trkpt>
      <trkpt lat="47.050353" lon="9.116831">
        <ele>2214.389642</ele>
        <time>2020-09-19T10:56:49.705Z</time>
      </trkpt>
      <trkpt lat="47.050445" lon="9.116852">
        <ele>2212.915190</ele>
        <time>2020-09-19T10:57:00.700Z</time>
      </trkpt>
      <trkpt lat="47.050537" lon="9.116889">
        <ele>2211.404543</ele>
        <time>2020-09-19T10:57:09.703Z</time>
      </trkpt>
      <trkpt lat="47.050631" lon="9.116882">
        <ele>2209.914019</ele>
        <time>2020-09-19T10:57:18.703Z</time>
      </trkpt>
      <trkpt lat="47.050721" lon="9.116919">
        <ele>2208.433896</ele>
        <time>2020-09-19T10:57:31.765Z</time>
      </trkpt>
      <trkpt lat="47.050817" lon="9.116950">
        <ele>2206.877251</ele>
        <time>2020-09-19T10:57:44.708Z</time>
      </trkpt>
      <trkpt lat="47.050892" lon="9.117023">
        <ele>2205.452082</ele>
        <time>2020-09-19T10:57:54.699Z</time>
      </trkpt>
      <trkpt lat="47.050981" lon="9.117070">
        <ele>2202.957563</ele>
        <time>2020-09-19T10:58:04.699Z</time>
      </trkpt>
      <trkpt lat="47.051070" lon="9.117018">
        <ele>2200.084327</ele>
        <time>2020-09-19T10:58:22.700Z</time>
      </trkpt>
      <trkpt lat="47.051163" lon="9.117022">
        <ele>2197.293665</ele>
        <time>2020-09-19T10:58:32.714Z</time>
      </trkpt>
      <trkpt lat="47.051251" lon="9.116991">
        <ele>2194.579207</ele>
        <time>2020-09-19T10:58:46.700Z</time>
      </trkpt>
      <trkpt lat="47.051344" lon="9.116981">
        <ele>2191.782267</ele>
        <time>2020-09-19T10:59:02.699Z</time>
      </trkpt>
      <trkpt lat="47.051442" lon="9.116978">
        <ele>2188.842193</ele>
        <time>2020-09-19T10:59:20.701Z</time>
      </trkpt>
      <trkpt lat="47.051535" lon="9.117000">
        <ele>2186.016728</ele>
        <time>2020-09-19T10:59:31.705Z</time>
      </trkpt>
      <trkpt lat="47.051630" lon="9.116996">
        <ele>2183.166103</ele>
        <time>2020-09-19T10:59:41.753Z</time>
      </trkpt>
      <trkpt lat="47.051716" lon="9.116956">
        <ele>2180.460172</ele>
        <time>2020-09-19T10:59:51.705Z</time>
      </trkpt>
      <trkpt lat="47.051807" lon="9.116975">
        <ele>2177.703216</ele>
        <time>2020-09-19T11:00:01.688Z</time>
      </trkpt>
      <trkpt lat="47.051899" lon="9.116957">
        <ele>2174.919336</ele>
        <time>2020-09-19T11:00:17.705Z</time>
      </trkpt>
      <trkpt lat="47.051984" lon="9.116902">
        <ele>2172.133057</ele>
        <time>2020-09-19T11:00:32.705Z</time>
      </trkpt>
      <trkpt lat="47.052077" lon="9.116862">
        <ele>2169.226285</ele>
        <time>2020-09-19T11:00:46.748Z</time>
      </trkpt>
      <trkpt lat="47.052152" lon="9.116938">
        <ele>2166.492643</ele>
        <time>2020-09-19T11:01:02.706Z</time>
      </trkpt>
      <trkpt lat="47.052246" lon="9.116918">
        <ele>2163.643714</ele>
        <time>2020-09-19T11:01:20.705Z</time>
      </trkpt>
      <trkpt lat="47.052332" lon="9.116870">
        <ele>2160.883992</ele>
        <time>2020-09-19T11:01:37.706Z</time>
      </trkpt>
      <trkpt lat="47.052412" lon="9.116791">
        <ele>2157.991898</ele>
        <time>2020-09-19T11:01:56.707Z</time>
      </trkpt>
      <trkpt lat="47.052501" lon="9.116751">
        <ele>2155.200059</ele>
        <time>2020-09-19T11:02:16.706Z</time>
      </trkpt>
      <trkpt lat="47.052592" lon="9.116715">
        <ele>2152.373174</ele>
        <time>2020-09-19T11:02:47.706Z</time>
      </trkpt>
      <trkpt lat="47.052684" lon="9.116723">
        <ele>2149.820992</ele>
        <time>2020-09-19T11:03:02.707Z</time>
      </trkpt>
      <trkpt lat="47.052768" lon="9.116664">
        <ele>2147.419922</ele>
        <time>2020-09-19T11:03:18.705Z</time>
      </trkpt>
      <trkpt lat="47.052833" lon="9.116563">
        <ele>2144.979246</ele>
        <time>2020-09-19T11:03:30.710Z</time>
      </trkpt>
      <trkpt lat="47.052907" lon="9.116467">
        <ele>2142.432761</ele>
        <time>2020-09-19T11:03:40.714Z</time>
      </trkpt>
      <trkpt lat="47.053000" lon="9.116494">
        <ele>2139.988401</ele>
        <time>2020-09-19T11:03:55.711Z</time>
      </trkpt>
      <trkpt lat="47.053090" lon="9.116467">
        <ele>2137.619875</ele>
        <time>2020-09-19T11:04:05.710Z</time>
      </trkpt>
      <trkpt lat="47.053225" lon="9.116429">
        <ele>2134.075621</ele>
        <time>2020-09-19T11:07:52.711Z</time>
      </trkpt>
      <trkpt lat="47.053319" lon="9.116405">
        <ele>2131.615541</ele>
        <time>2020-09-19T11:08:04.714Z</time>
      </trkpt>
      <trkpt lat="47.053410" lon="9.116407">
        <ele>2129.268946</ele>
        <time>2020-09-19T11:08:24.714Z</time>
      </trkpt>
      <trkpt lat="47.053496" lon="9.116443">
        <ele>2126.963114</ele>
        <time>2020-09-19T11:08:39.710Z</time>
      </trkpt>
      <trkpt lat="47.053582" lon="9.116495">
        <ele>2124.564914</ele>
        <time>2020-09-19T11:08:53.715Z</time>
      </trkpt>
      <trkpt lat="47.053671" lon="9.116522">
        <ele>2122.221645</ele>
        <time>2020-09-19T11:09:05.710Z</time>
      </trkpt>
      <trkpt lat="47.053756" lon="9.116590">
        <ele>2119.725612</ele>
        <time>2020-09-19T11:09:18.709Z</time>
      </trkpt>
      <trkpt lat="47.053840" lon="9.116653">
        <ele>2117.293393</ele>
        <time>2020-09-19T11:09:29.751Z</time>
      </trkpt>
      <trkpt lat="47.053927" lon="9.116704">
        <ele>2114.877905</ele>
        <time>2020-09-19T11:09:45.708Z</time>
      </trkpt>
      <trkpt lat="47.054021" lon="9.116691">
        <ele>2112.443487</ele>
        <time>2020-09-19T11:09:57.715Z</time>
      </trkpt>
      <trkpt lat="47.054102" lon="9.116630">
        <ele>2110.096133</ele>
        <time>2020-09-19T11:10:07.709Z</time>
      </trkpt>
      <trkpt lat="47.054194" lon="9.116659">
        <ele>2107.669931</ele>
        <time>2020-09-19T11:10:27.704Z</time>
      </trkpt>
      <trkpt lat="47.054281" lon="9.116579">
        <ele>2105.022876</ele>
        <time>2020-09-19T11:10:41.707Z</time>
      </trkpt>
      <trkpt lat="47.054375" lon="9.116537">
        <ele>2102.789471</ele>
        <time>2020-09-19T11:10:51.709Z</time>
      </trkpt>
      <trkpt lat="47.054419" lon="9.116411">
        <ele>2100.633301</ele>
        <time>2020-09-19T11:10:59.711Z</time>
      </trkpt>
      <trkpt lat="47.054469" lon="9.116293">
        <ele>2098.517135</ele>
        <time>2020-09-19T11:11:14.756Z</time>
      </trkpt>
      <trkpt lat="47.054507" lon="9.116173">
        <ele>2096.501957</ele>
        <time>2020-09-19T11:11:22.714Z</time>
      </trkpt>
      <trkpt lat="47.054589" lon="9.116119">
        <ele>2094.493056</ele>
        <time>2020-09-19T11:11:34.710Z</time>
      </trkpt>
      <trkpt lat="47.054662" lon="9.116032">
        <ele>2092.391205</ele>
        <time>2020-09-19T11:11:49.709Z</time>
      </trkpt>
      <trkpt lat="47.054703" lon="9.115914">
        <ele>2090.374043</ele>
        <time>2020-09-19T11:12:12.711Z</time>
      </trkpt>
      <trkpt lat="47.054796" lon="9.115931">
        <ele>2088.279235</ele>
        <time>2020-09-19T11:12:32.707Z</time>
      </trkpt>
      <trkpt lat="47.054874" lon="9.115866">
        <ele>2086.274370</ele>
        <time>2020-09-19T11:12:48.709Z</time>
      </trkpt>
      <trkpt lat="47.054940" lon="9.115771">
        <ele>2084.208145</ele>
        <time>2020-09-19T11:13:03.750Z</time>
      </trkpt>
      <trkpt lat="47.054999" lon="9.115663">
        <ele>2082.100038</ele>
        <time>2020-09-19T11:13:18.703Z</time>
      </trkpt>
      <trkpt lat="47.055037" lon="9.115544">
        <ele>2080.098675</ele>
        <time>2020-09-19T11:13:36.710Z</time>
      </trkpt>
      <trkpt lat="47.055113" lon="9.115462">
        <ele>2077.990330</ele>
        <time>2020-09-19T11:13:54.709Z</time>
      </trkpt>
      <trkpt lat="47.055189" lon="9.115384">
        <ele>2075.917482</ele>
        <time>2020-09-19T11:14:18.730Z</time>
      </trkpt>
      <trkpt lat="47.055272" lon="9.115330">
        <ele>2073.888172</ele>
        <time>2020-09-19T11:14:29.709Z</time>
      </trkpt>
      <trkpt lat="47.055362" lon="9.115295">
        <ele>2071.807069</ele>
        <time>2020-09-19T11:14:39.710Z</time>
      </trkpt>
      <trkpt lat="47.055437" lon="9.115203">
        <ele>2069.622311</ele>
        <time>2020-09-19T11:14:51.710Z</time>
      </trkpt>
      <trkpt lat="47.055518" lon="9.115132">
        <ele>2067.513518</ele>
        <time>2020-09-19T11:15:02.709Z</time>
      </trkpt>
      <trkpt lat="47.055605" lon="9.115094">
        <ele>2065.484608</ele>
        <time>2020-09-19T11:15:10.709Z</time>
      </trkpt>
      <trkpt lat="47.055695" lon="9.115039">
        <ele>2063.281866</ele>
        <time>2020-09-19T11:15:20.711Z</time>
      </trkpt>
      <trkpt lat="47.055785" lon="9.115018">
        <ele>2061.205891</ele>
        <time>2020-09-19T11:15:31.716Z</time>
      </trkpt>
      <trkpt lat="47.055881" lon="9.115046">
        <ele>2058.976220</ele>
        <time>2020-09-19T11:15:44.709Z</time>
      </trkpt>
      <trkpt lat="47.056020" lon="9.115026">
        <ele>2055.794574</ele>
        <time>2020-09-19T11:22:20.709Z</time>
      </trkpt>
      <trkpt lat="47.056111" lon="9.115005">
        <ele>2053.696099</ele>
        <time>2020-09-19T11:22:34.706Z</time>
      </trkpt>
      <trkpt lat="47.056182" lon="9.114923">
        <ele>2051.638048</ele>
        <time>2020-09-19T11:22:54.709Z</time>
      </trkpt>
      <trkpt lat="47.056274" lon="9.114894">
        <ele>2049.494473</ele>
        <time>2020-09-19T11:23:05.725Z</time>
      </trkpt>
      <trkpt lat="47.056365" lon="9.114926">
        <ele>2047.362802</ele>
        <time>2020-09-19T11:23:28.713Z</time>
      </trkpt>
      <trkpt lat="47.056449" lon="9.114871">
        <ele>2045.267502</ele>
        <time>2020-09-19T11:23:44.752Z</time>
      </trkpt>
      <trkpt lat="47.056498" lon="9.114761">
        <ele>2043.227792</ele>
        <time>2020-09-19T11:24:02.710Z</time>
      </trkpt>
      <trkpt lat="47.056484" lon="9.114626">
        <ele>2041.108495</ele>
        <time>2020-09-19T11:24:46.710Z</time>
      </trkpt>
      <trkpt lat="47.056428" lon="9.114508">
        <ele>2038.876640</ele>
        <time>2020-09-19T11:25:03.716Z</time>
      </trkpt>
      <trkpt lat="47.056416" lon="9.114375">
        <ele>2036.794491</ele>
        <time>2020-09-19T11:25:15.714Z</time>
      </trkpt>
      <trkpt lat="47.056365" lon="9.114266">
        <ele>2034.742305</ele>
        <time>2020-09-19T11:25:29.710Z</time>
      </trkpt>
      <trkpt lat="47.056401" lon="9.114132">
        <ele>2032.506799</ele>
        <time>2020-09-19T11:25:40.709Z</time>
      </trkpt>
      <trkpt lat="47.056381" lon="9.113999">
        <ele>2030.392988</ele>
        <time>2020-09-19T11:25:50.708Z</time>
      </trkpt>
      <trkpt lat="47.056369" lon="9.113866">
        <ele>2028.310837</ele>
        <time>2020-09-19T11:26:04.711Z</time>
      </trkpt>
      <trkpt lat="47.056450" lon="9.113802">
        <ele>2026.215278</ele>
        <time>2020-09-19T11:26:17.702Z</time>
      </trkpt>
      <trkpt lat="47.056545" lon="9.113802">
        <ele>2024.051144</ele>
        <time>2020-09-19T11:26:29.712Z</time>
      </trkpt>
      <trkpt lat="47.056586" lon="9.113682">
        <ele>2021.611054</ele>
        <time>2020-09-19T11:26:40.713Z</time>
      </trkpt>
      <trkpt lat="47.056574" lon="9.113547">
        <ele>2019.026898</ele>
        <time>2020-09-19T11:26:53.712Z</time>
      </trkpt>
      <trkpt lat="47.056625" lon="9.113431">
        <ele>2016.406422</ele>
        <time>2020-09-19T11:27:09.711Z</time>
      </trkpt>
      <trkpt lat="47.056694" lon="9.113342">
        <ele>2013.847240</ele>
        <time>2020-09-19T11:27:26.712Z</time>
      </trkpt>
      <trkpt lat="47.056750" lon="9.113233">
        <ele>2011.255962</ele>
        <time>2020-09-19T11:27:40.709Z</time>
      </trkpt>
      <trkpt lat="47.056827" lon="9.113164">
        <ele>2008.742485</ele>
        <time>2020-09-19T11:27:59.713Z</time>
      </trkpt>
      <trkpt lat="47.056834" lon="9.113020">
        <ele>2006.002283</ele>
        <time>2020-09-19T11:28:11.708Z</time>
      </trkpt>
      <trkpt lat="47.056901" lon="9.112932">
        <ele>2003.497390</ele>
        <time>2020-09-19T11:28:29.713Z</time>
      </trkpt>
      <trkpt lat="47.056914" lon="9.112799">
        <ele>2000.947081</ele>
        <time>2020-09-19T11:28:51.714Z</time>
      </trkpt>
      <trkpt lat="47.056965" lon="9.112689">
        <ele>1998.421551</ele>
        <time>2020-09-19T11:29:10.709Z</time>
      </trkpt>
      <trkpt lat="47.056999" lon="9.112556">
        <ele>1995.725220</ele>
        <time>2020-09-19T11:29:26.717Z</time>
      </trkpt>
      <trkpt lat="47.057036" lon="9.112434">
        <ele>1993.190468</ele>
        <time>2020-09-19T11:29:42.707Z</time>
      </trkpt>
      <trkpt lat="47.057057" lon="9.112299">
        <ele>1990.562105</ele>
        <time>2020-09-19T11:29:57.701Z</time>
      </trkpt>
      <trkpt lat="47.057111" lon="9.112191">
        <ele>1988.019329</ele>
        <time>2020-09-19T11:30:11.712Z</time>
      </trkpt>
      <trkpt lat="47.057184" lon="9.112110">
        <ele>1985.469762</ele>
        <time>2020-09-19T11:30:26.747Z</time>
      </trkpt>
      <trkpt lat="47.057251" lon="9.112016">
        <ele>1982.887541</ele>
        <time>2020-09-19T11:30:44.708Z</time>
      </trkpt>
      <trkpt lat="47.057274" lon="9.111883">
        <ele>1980.283038</ele>
        <time>2020-09-19T11:33:58.712Z</time>
      </trkpt>
      <trkpt lat="47.057339" lon="9.111788">
        <ele>1977.727452</ele>
        <time>2020-09-19T11:34:12.706Z</time>
      </trkpt>
      <trkpt lat="47.057384" lon="9.111665">
        <ele>1975.077476</ele>
        <time>2020-09-19T11:34:32.711Z</time>
      </trkpt>
      <trkpt lat="47.057465" lon="9.111601">
        <ele>1972.624598</ele>
        <time>2020-09-19T11:34:54.709Z</time>
      </trkpt>
      <trkpt lat="47.057542" lon="9.111525">
        <ele>1970.341944</ele>
        <time>2020-09-19T11:35:05.706Z</time>
      </trkpt>
      <trkpt lat="47.057612" lon="9.111438">
        <ele>1968.085535</ele>
        <time>2020-09-19T11:35:21.705Z</time>
      </trkpt>
      <trkpt lat="47.057643" lon="9.111312">
        <ele>1965.840361</ele>
        <time>2020-09-19T11:35:40.704Z</time>
      </trkpt>
      <trkpt lat="47.057703" lon="9.111206">
        <ele>1963.530683</ele>
        <time>2020-09-19T11:35:55.707Z</time>
      </trkpt>
      <trkpt lat="47.057754" lon="9.111085">
        <ele>1961.146063</ele>
        <time>2020-09-19T11:36:08.705Z</time>
      </trkpt>
      <trkpt lat="47.057767" lon="9.110951">
        <ele>1958.877650</ele>
        <time>2020-09-19T11:36:17.705Z</time>
      </trkpt>
      <trkpt lat="47.057778" lon="9.110819">
        <ele>1956.648924</ele>
        <time>2020-09-19T11:36:27.710Z</time>
      </trkpt>
      <trkpt lat="47.057813" lon="9.110686">
        <ele>1954.259410</ele>
        <time>2020-09-19T11:36:40.706Z</time>
      </trkpt>
      <trkpt lat="47.057818" lon="9.110552">
        <ele>1952.010290</ele>
        <time>2020-09-19T11:36:52.708Z</time>
      </trkpt>
      <trkpt lat="47.057851" lon="9.110428">
        <ele>1949.779192</ele>
        <time>2020-09-19T11:37:02.711Z</time>
      </trkpt>
      <trkpt lat="47.057813" lon="9.110294">
        <ele>1947.346643</ele>
        <time>2020-09-19T11:37:12.746Z</time>
      </trkpt>
      <trkpt lat="47.057875" lon="9.110198">
        <ele>1945.129688</ele>
        <time>2020-09-19T11:37:26.707Z</time>
      </trkpt>
      <trkpt lat="47.057924" lon="9.110084">
        <ele>1942.870638</ele>
        <time>2020-09-19T11:37:37.710Z</time>
      </trkpt>
      <trkpt lat="47.057898" lon="9.109945">
        <ele>1940.454878</ele>
        <time>2020-09-19T11:37:48.708Z</time>
      </trkpt>
      <trkpt lat="47.057896" lon="9.109812">
        <ele>1938.225344</ele>
        <time>2020-09-19T11:38:01.708Z</time>
      </trkpt>
      <trkpt lat="47.057885" lon="9.109675">
        <ele>1935.913423</ele>
        <time>2020-09-19T11:38:12.705Z</time>
      </trkpt>
      <trkpt lat="47.057873" lon="9.109527">
        <ele>1933.415535</ele>
        <time>2020-09-19T11:38:30.707Z</time>
      </trkpt>
      <trkpt lat="47.057916" lon="9.109401">
        <ele>1931.053721</ele>
        <time>2020-09-19T11:38:44.706Z</time>
      </trkpt>
      <trkpt lat="47.057933" lon="9.109265">
        <ele>1928.787626</ele>
        <time>2020-09-19T11:38:57.710Z</time>
      </trkpt>
      <trkpt lat="47.057979" lon="9.109150">
        <ele>1926.795783</ele>
        <time>2020-09-19T11:39:13.711Z</time>
      </trkpt>
      <trkpt lat="47.058007" lon="9.109022">
        <ele>1924.787822</ele>
        <time>2020-09-19T11:39:28.710Z</time>
      </trkpt>
      <trkpt lat="47.058065" lon="9.108912">
        <ele>1922.710242</ele>
        <time>2020-09-19T11:39:43.715Z</time>
      </trkpt>
      <trkpt lat="47.058130" lon="9.108818">
        <ele>1920.709732</ele>
        <time>2020-09-19T11:39:58.710Z</time>
      </trkpt>
      <trkpt lat="47.058194" lon="9.108714">
        <ele>1918.616472</ele>
        <time>2020-09-19T11:40:12.712Z</time>
      </trkpt>
      <trkpt lat="47.058252" lon="9.108609">
        <ele>1916.597436</ele>
        <time>2020-09-19T11:40:22.709Z</time>
      </trkpt>
      <trkpt lat="47.058333" lon="9.108538">
        <ele>1914.529037</ele>
        <time>2020-09-19T11:40:41.697Z</time>
      </trkpt>
      <trkpt lat="47.058405" lon="9.108455">
        <ele>1912.521889</ele>
        <time>2020-09-19T11:40:54.706Z</time>
      </trkpt>
      <trkpt lat="47.058479" lon="9.108367">
        <ele>1910.433891</ele>
        <time>2020-09-19T11:41:06.704Z</time>
      </trkpt>
      <trkpt lat="47.058528" lon="9.108251">
        <ele>1908.395288</ele>
        <time>2020-09-19T11:41:16.709Z</time>
      </trkpt>
      <trkpt lat="47.058559" lon="9.108127">
        <ele>1906.422462</ele>
        <time>2020-09-19T11:41:50.692Z</time>
      </trkpt>
      <trkpt lat="47.058617" lon="9.108020">
        <ele>1904.380145</ele>
        <time>2020-09-19T11:41:59.705Z</time>
      </trkpt>
      <trkpt lat="47.058630" lon="9.107882">
        <ele>1902.299375</ele>
        <time>2020-09-19T11:42:08.685Z</time>
      </trkpt>
      <trkpt lat="47.058659" lon="9.107747">
        <ele>1900.185159</ele>
        <time>2020-09-19T11:42:18.698Z</time>
      </trkpt>
      <trkpt lat="47.058683" lon="9.107604">
        <ele>1897.985464</ele>
        <time>2020-09-19T11:42:27.705Z</time>
      </trkpt>
      <trkpt lat="47.058706" lon="9.107471">
        <ele>1895.935986</ele>
        <time>2020-09-19T11:42:35.706Z</time>
      </trkpt>
      <trkpt lat="47.058697" lon="9.107333">
        <ele>1893.865408</ele>
        <time>2020-09-19T11:42:45.714Z</time>
      </trkpt>
      <trkpt lat="47.058685" lon="9.107190">
        <ele>1891.713432</ele>
        <time>2020-09-19T11:42:56.710Z</time>
      </trkpt>
      <trkpt lat="47.058658" lon="9.107059">
        <ele>1889.660412</ele>
        <time>2020-09-19T11:43:05.712Z</time>
      </trkpt>
      <trkpt lat="47.058630" lon="9.106927">
        <ele>1887.420231</ele>
        <time>2020-09-19T11:43:17.717Z</time>
      </trkpt>
      <trkpt lat="47.058607" lon="9.106798">
        <ele>1885.259544</ele>
        <time>2020-09-19T11:43:25.708Z</time>
      </trkpt>
      <trkpt lat="47.058610" lon="9.106664">
        <ele>1883.087069</ele>
        <time>2020-09-19T11:43:44.719Z</time>
      </trkpt>
      <trkpt lat="47.058665" lon="9.106548">
        <ele>1880.797004</ele>
        <time>2020-09-19T11:43:54.709Z</time>
      </trkpt>
      <trkpt lat="47.058691" lon="9.106318">
        <ele>1877.019184</ele>
        <time>2020-09-19T11:45:29.710Z</time>
      </trkpt>
      <trkpt lat="47.058786" lon="9.106309">
        <ele>1874.754876</ele>
        <time>2020-09-19T11:45:42.706Z</time>
      </trkpt>
      <trkpt lat="47.058874" lon="9.106270">
        <ele>1872.568450</ele>
        <time>2020-09-19T11:45:55.705Z</time>
      </trkpt>
      <trkpt lat="47.058962" lon="9.106212">
        <ele>1870.274032</ele>
        <time>2020-09-19T11:46:06.701Z</time>
      </trkpt>
      <trkpt lat="47.059051" lon="9.106170">
        <ele>1868.050432</ele>
        <time>2020-09-19T11:46:15.705Z</time>
      </trkpt>
      <trkpt lat="47.059136" lon="9.106110">
        <ele>1865.807066</ele>
        <time>2020-09-19T11:46:27.712Z</time>
      </trkpt>
      <trkpt lat="47.059226" lon="9.106076">
        <ele>1863.596630</ele>
        <time>2020-09-19T11:46:43.707Z</time>
      </trkpt>
      <trkpt lat="47.059285" lon="9.105967">
        <ele>1861.340800</ele>
        <time>2020-09-19T11:47:03.709Z</time>
      </trkpt>
      <trkpt lat="47.059402" lon="9.105962">
        <ele>1858.556737</ele>
        <time>2020-09-19T11:48:01.697Z</time>
      </trkpt>
      <trkpt lat="47.059454" lon="9.105848">
        <ele>1856.333695</ele>
        <time>2020-09-19T11:48:15.711Z</time>
      </trkpt>
      <trkpt lat="47.059539" lon="9.105792">
        <ele>1854.117651</ele>
        <time>2020-09-19T11:48:28.712Z</time>
      </trkpt>
      <trkpt lat="47.059607" lon="9.105692">
        <ele>1851.828215</ele>
        <time>2020-09-19T11:48:38.710Z</time>
      </trkpt>
      <trkpt lat="47.059693" lon="9.105627">
        <ele>1849.527453</ele>
        <time>2020-09-19T11:48:51.706Z</time>
      </trkpt>
      <trkpt lat="47.059778" lon="9.105575">
        <ele>1847.337150</ele>
        <time>2020-09-19T11:49:01.751Z</time>
      </trkpt>
      <trkpt lat="47.059863" lon="9.105514">
        <ele>1844.783552</ele>
        <time>2020-09-19T11:49:12.743Z</time>
      </trkpt>
      <trkpt lat="47.059949" lon="9.105450">
        <ele>1842.125227</ele>
        <time>2020-09-19T11:49:23.714Z</time>
      </trkpt>
      <trkpt lat="47.060019" lon="9.105361">
        <ele>1839.572049</ele>
        <time>2020-09-19T11:49:36.749Z</time>
      </trkpt>
      <trkpt lat="47.060101" lon="9.105284">
        <ele>1836.888305</ele>
        <time>2020-09-19T11:49:49.710Z</time>
      </trkpt>
      <trkpt lat="47.060162" lon="9.105187">
        <ele>1834.408906</ele>
        <time>2020-09-19T11:50:01.714Z</time>
      </trkpt>
      <trkpt lat="47.060244" lon="9.105132">
        <ele>1831.923331</ele>
        <time>2020-09-19T11:50:16.719Z</time>
      </trkpt>
      <trkpt lat="47.060335" lon="9.105083">
        <ele>1829.250979</ele>
        <time>2020-09-19T11:50:32.717Z</time>
      </trkpt>
      <trkpt lat="47.060366" lon="9.104959">
        <ele>1826.770189</ele>
        <time>2020-09-19T11:50:43.711Z</time>
      </trkpt>
      <trkpt lat="47.060448" lon="9.104889">
        <ele>1824.154950</ele>
        <time>2020-09-19T11:50:56.718Z</time>
      </trkpt>
      <trkpt lat="47.060543" lon="9.104891">
        <ele>1821.535512</ele>
        <time>2020-09-19T11:51:11.709Z</time>
      </trkpt>
      <trkpt lat="47.060611" lon="9.104787">
        <ele>1818.828104</ele>
        <time>2020-09-19T11:51:23.707Z</time>
      </trkpt>
      <trkpt lat="47.060702" lon="9.104752">
        <ele>1816.234530</ele>
        <time>2020-09-19T11:51:42.708Z</time>
      </trkpt>
      <trkpt lat="47.060792" lon="9.104713">
        <ele>1813.647358</ele>
        <time>2020-09-19T11:51:54.746Z</time>
      </trkpt>
      <trkpt lat="47.060874" lon="9.104658">
        <ele>1811.161788</ele>
        <time>2020-09-19T11:52:10.709Z</time>
      </trkpt>
      <trkpt lat="47.061017" lon="9.104688">
        <ele>1807.179193</ele>
        <time>2020-09-19T11:53:36.708Z</time>
      </trkpt>
      <trkpt lat="47.061113" lon="9.104691">
        <ele>1804.531855</ele>
        <time>2020-09-19T11:53:53.749Z</time>
      </trkpt>
      <trkpt lat="47.061208" lon="9.104674">
        <ele>1801.893297</ele>
        <time>2020-09-19T11:54:05.707Z</time>
      </trkpt>
      <trkpt lat="47.061280" lon="9.104581">
        <ele>1799.249200</ele>
        <time>2020-09-19T11:54:18.708Z</time>
      </trkpt>
      <trkpt lat="47.061348" lon="9.104475">
        <ele>1796.446004</ele>
        <time>2020-09-19T11:54:27.762Z</time>
      </trkpt>
      <trkpt lat="47.061404" lon="9.104369">
        <ele>1793.732179</ele>
        <time>2020-09-19T11:54:36.708Z</time>
      </trkpt>
      <trkpt lat="47.061483" lon="9.104288">
        <ele>1790.870361</ele>
        <time>2020-09-19T11:54:46.713Z</time>
      </trkpt>
      <trkpt lat="47.061568" lon="9.104238">
        <ele>1788.150851</ele>
        <time>2020-09-19T11:54:55.710Z</time>
      </trkpt>
      <trkpt lat="47.061619" lon="9.104128">
        <ele>1785.458907</ele>
        <time>2020-09-19T11:55:05.717Z</time>
      </trkpt>
      <trkpt lat="47.061670" lon="9.104011">
        <ele>1782.648760</ele>
        <time>2020-09-19T11:55:14.717Z</time>
      </trkpt>
      <trkpt lat="47.061760" lon="9.103995">
        <ele>1779.956357</ele>
        <time>2020-09-19T11:55:32.724Z</time>
      </trkpt>
      <trkpt lat="47.061850" lon="9.104019">
        <ele>1777.239741</ele>
        <time>2020-09-19T11:55:48.759Z</time>
      </trkpt>
      <trkpt lat="47.061943" lon="9.104029">
        <ele>1774.470372</ele>
        <time>2020-09-19T11:56:02.710Z</time>
      </trkpt>
      <trkpt lat="47.062030" lon="9.104071">
        <ele>1771.750465</ele>
        <time>2020-09-19T11:56:25.708Z</time>
      </trkpt>
      <trkpt lat="47.062123" lon="9.104094">
        <ele>1768.949575</ele>
        <time>2020-09-19T11:56:48.714Z</time>
      </trkpt>
      <trkpt lat="47.062191" lon="9.104002">
        <ele>1766.203196</ele>
        <time>2020-09-19T11:57:02.715Z</time>
      </trkpt>
      <trkpt lat="47.062285" lon="9.104003">
        <ele>1763.411455</ele>
        <time>2020-09-19T11:57:19.719Z</time>
      </trkpt>
      <trkpt lat="47.062358" lon="9.104083">
        <ele>1760.705974</ele>
        <time>2020-09-19T11:57:58.717Z</time>
      </trkpt>
      <trkpt lat="47.062409" lon="9.104193">
        <ele>1758.014057</ele>
        <time>2020-09-19T11:58:13.712Z</time>
      </trkpt>
      <trkpt lat="47.062476" lon="9.104297">
        <ele>1755.118178</ele>
        <time>2020-09-19T11:59:09.718Z</time>
      </trkpt>
      <trkpt lat="47.062567" lon="9.104321">
        <ele>1752.372337</ele>
        <time>2020-09-19T11:59:27.725Z</time>
      </trkpt>
      <trkpt lat="47.062656" lon="9.104300">
        <ele>1749.695237</ele>
        <time>2020-09-19T11:59:43.715Z</time>
      </trkpt>
      <trkpt lat="47.062697" lon="9.104423">
        <ele>1746.924926</ele>
        <time>2020-09-19T12:00:00.708Z</time>
      </trkpt>
      <trkpt lat="47.062793" lon="9.104408">
        <ele>1744.057757</ele>
        <time>2020-09-19T12:00:14.707Z</time>
      </trkpt>
      <trkpt lat="47.062879" lon="9.104370">
        <ele>1740.796370</ele>
        <time>2020-09-19T12:00:30.716Z</time>
      </trkpt>
      <trkpt lat="47.062965" lon="9.104321">
        <ele>1737.429493</ele>
        <time>2020-09-19T12:00:52.719Z</time>
      </trkpt>
      <trkpt lat="47.063013" lon="9.104201">
        <ele>1733.969769</ele>
        <time>2020-09-19T12:01:10.710Z</time>
      </trkpt>
      <trkpt lat="47.063083" lon="9.104105">
        <ele>1730.473568</ele>
        <time>2020-09-19T12:01:25.714Z</time>
      </trkpt>
      <trkpt lat="47.063138" lon="9.104000">
        <ele>1727.180550</ele>
        <time>2020-09-19T12:01:41.718Z</time>
      </trkpt>
      <trkpt lat="47.063230" lon="9.104005">
        <ele>1723.820510</ele>
        <time>2020-09-19T12:02:07.714Z</time>
      </trkpt>
      <trkpt lat="47.063325" lon="9.103991">
        <ele>1720.335853</ele>
        <time>2020-09-19T12:02:24.716Z</time>
      </trkpt>
      <trkpt lat="47.063398" lon="9.103910">
        <ele>1716.996128</ele>
        <time>2020-09-19T12:02:42.718Z</time>
      </trkpt>
      <trkpt lat="47.063484" lon="9.103864">
        <ele>1713.655518</ele>
        <time>2020-09-19T12:02:59.718Z</time>
      </trkpt>
      <trkpt lat="47.063611" lon="9.103820">
        <ele>1708.893046</ele>
        <time>2020-09-19T12:04:20.780Z</time>
      </trkpt>
      <trkpt lat="47.063702" lon="9.103773">
        <ele>1705.372250</ele>
        <time>2020-09-19T12:04:38.765Z</time>
      </trkpt>
      <trkpt lat="47.063793" lon="9.103788">
        <ele>1702.030137</ele>
        <time>2020-09-19T12:04:57.716Z</time>
      </trkpt>
      <trkpt lat="47.063878" lon="9.103730">
        <ele>1698.609138</ele>
        <time>2020-09-19T12:05:15.703Z</time>
      </trkpt>
      <trkpt lat="47.063902" lon="9.103597">
        <ele>1695.188540</ele>
        <time>2020-09-19T12:05:33.777Z</time>
      </trkpt>
      <trkpt lat="47.063927" lon="9.103453">
        <ele>1691.494080</ele>
        <time>2020-09-19T12:05:45.757Z</time>
      </trkpt>
      <trkpt lat="47.063915" lon="9.103322">
        <ele>1688.207945</ele>
        <time>2020-09-19T12:05:54.724Z</time>
      </trkpt>
      <trkpt lat="47.063932" lon="9.103190">
        <ele>1684.868127</ele>
        <time>2020-09-19T12:06:41.720Z</time>
      </trkpt>
      <trkpt lat="47.063961" lon="9.103056">
        <ele>1681.372633</ele>
        <time>2020-09-19T12:07:09.715Z</time>
      </trkpt>
      <trkpt lat="47.063926" lon="9.102927">
        <ele>1678.130566</ele>
        <time>2020-09-19T12:07:22.719Z</time>
      </trkpt>
      <trkpt lat="47.063917" lon="9.102795">
        <ele>1676.482289</ele>
        <time>2020-09-19T12:07:33.718Z</time>
      </trkpt>
      <trkpt lat="47.063900" lon="9.102662">
        <ele>1674.800941</ele>
        <time>2020-09-19T12:07:54.720Z</time>
      </trkpt>
      <trkpt lat="47.063903" lon="9.102527">
        <ele>1673.122691</ele>
        <time>2020-09-19T12:08:12.719Z</time>
      </trkpt>
      <trkpt lat="47.063867" lon="9.102406">
        <ele>1671.482135</ele>
        <time>2020-09-19T12:08:22.723Z</time>
      </trkpt>
      <trkpt lat="47.063862" lon="9.102259">
        <ele>1669.653402</ele>
        <time>2020-09-19T12:08:32.718Z</time>
      </trkpt>
      <trkpt lat="47.063867" lon="9.102127">
        <ele>1668.010784</ele>
        <time>2020-09-19T12:08:41.767Z</time>
      </trkpt>
      <trkpt lat="47.063870" lon="9.101994">
        <ele>1666.357370</ele>
        <time>2020-09-19T12:08:53.760Z</time>
      </trkpt>
      <trkpt lat="47.063863" lon="9.101855">
        <ele>1664.625598</ele>
        <time>2020-09-19T12:09:03.716Z</time>
      </trkpt>
      <trkpt lat="47.063878" lon="9.101723">
        <ele>1662.962850</ele>
        <time>2020-09-19T12:09:13.724Z</time>
      </trkpt>
      <trkpt lat="47.063893" lon="9.101580">
        <ele>1661.165150</ele>
        <time>2020-09-19T12:09:23.758Z</time>
      </trkpt>
      <trkpt lat="47.063901" lon="9.101445">
        <ele>1659.481457</ele>
        <time>2020-09-19T12:09:33.718Z</time>
      </trkpt>
      <trkpt lat="47.063926" lon="9.101316">
        <ele>1657.815044</ele>
        <time>2020-09-19T12:09:43.714Z</time>
      </trkpt>
      <trkpt lat="47.063965" lon="9.101197">
        <ele>1656.174259</ele>
        <time>2020-09-19T12:09:52.719Z</time>
      </trkpt>
      <trkpt lat="47.063998" lon="9.101065">
        <ele>1654.427211</ele>
        <time>2020-09-19T12:10:01.726Z</time>
      </trkpt>
      <trkpt lat="47.064072" lon="9.100974">
        <ele>1652.666451</ele>
        <time>2020-09-19T12:10:11.720Z</time>
      </trkpt>
      <trkpt lat="47.064138" lon="9.100885">
        <ele>1651.031804</ele>
        <time>2020-09-19T12:10:20.784Z</time>
      </trkpt>
      <trkpt lat="47.064194" lon="9.100770">
        <ele>1649.275394</ele>
        <time>2020-09-19T12:10:31.720Z</time>
      </trkpt>
      <trkpt lat="47.064251" lon="9.100662">
        <ele>1647.577869</ele>
        <time>2020-09-19T12:10:41.716Z</time>
      </trkpt>
      <trkpt lat="47.064315" lon="9.100558">
        <ele>1645.836469</ele>
        <time>2020-09-19T12:10:52.716Z</time>
      </trkpt>
      <trkpt lat="47.064385" lon="9.100459">
        <ele>1644.901938</ele>
        <time>2020-09-19T12:11:02.734Z</time>
      </trkpt>
      <trkpt lat="47.064472" lon="9.100404">
        <ele>1644.160003</ele>
        <time>2020-09-19T12:11:15.716Z</time>
      </trkpt>
      <trkpt lat="47.064568" lon="9.100367">
        <ele>1643.382591</ele>
        <time>2020-09-19T12:11:26.719Z</time>
      </trkpt>
      <trkpt lat="47.064659" lon="9.100312">
        <ele>1642.611781</ele>
        <time>2020-09-19T12:11:37.716Z</time>
      </trkpt>
      <trkpt lat="47.064750" lon="9.100262">
        <ele>1641.850727</ele>
        <time>2020-09-19T12:11:49.718Z</time>
      </trkpt>
      <trkpt lat="47.064836" lon="9.100200">
        <ele>1641.100283</ele>
        <time>2020-09-19T12:12:00.716Z</time>
      </trkpt>
      <trkpt lat="47.064931" lon="9.100226">
        <ele>1640.343365</ele>
        <time>2020-09-19T12:12:09.719Z</time>
      </trkpt>
      <trkpt lat="47.065001" lon="9.100133">
        <ele>1639.603897</ele>
        <time>2020-09-19T12:12:20.717Z</time>
      </trkpt>
      <trkpt lat="47.065016" lon="9.099992">
        <ele>1638.842496</ele>
        <time>2020-09-19T12:12:30.720Z</time>
      </trkpt>
      <trkpt lat="47.064962" lon="9.099878">
        <ele>1638.101661</ele>
        <time>2020-09-19T12:12:40.717Z</time>
      </trkpt>
      <trkpt lat="47.064947" lon="9.099742">
        <ele>1637.366606</ele>
        <time>2020-09-19T12:12:51.719Z</time>
      </trkpt>
      <trkpt lat="47.064947" lon="9.099595">
        <ele>1636.582313</ele>
        <time>2020-09-19T12:13:02.719Z</time>
      </trkpt>
      <trkpt lat="47.064941" lon="9.099458">
        <ele>1635.849863</ele>
        <time>2020-09-19T12:13:13.721Z</time>
      </trkpt>
      <trkpt lat="47.064966" lon="9.099318">
        <ele>1635.077676</ele>
        <time>2020-09-19T12:13:33.719Z</time>
      </trkpt>
      <trkpt lat="47.064955" lon="9.099176">
        <ele>1634.315176</ele>
        <time>2020-09-19T12:13:42.716Z</time>
      </trkpt>
      <trkpt lat="47.064947" lon="9.099037">
        <ele>1633.570922</ele>
        <time>2020-09-19T12:13:53.720Z</time>
      </trkpt>
      <trkpt lat="47.064999" lon="9.098876">
        <ele>1632.620265</ele>
        <time>2020-09-19T12:18:15.732Z</time>
      </trkpt>
      <trkpt lat="47.065085" lon="9.098820">
        <ele>1631.883372</ele>
        <time>2020-09-19T12:18:25.775Z</time>
      </trkpt>
      <trkpt lat="47.065164" lon="9.098733">
        <ele>1631.088225</ele>
        <time>2020-09-19T12:18:34.723Z</time>
      </trkpt>
      <trkpt lat="47.065172" lon="9.098596">
        <ele>1630.307253</ele>
        <time>2020-09-19T12:18:41.717Z</time>
      </trkpt>
      <trkpt lat="47.065146" lon="9.098467">
        <ele>1629.543172</ele>
        <time>2020-09-19T12:18:48.764Z</time>
      </trkpt>
      <trkpt lat="47.065087" lon="9.098356">
        <ele>1628.743496</ele>
        <time>2020-09-19T12:18:56.714Z</time>
      </trkpt>
      <trkpt lat="47.065023" lon="9.098248">
        <ele>1627.930449</ele>
        <time>2020-09-19T12:19:05.719Z</time>
      </trkpt>
      <trkpt lat="47.064968" lon="9.098141">
        <ele>1627.169102</ele>
        <time>2020-09-19T12:19:13.717Z</time>
      </trkpt>
      <trkpt lat="47.064908" lon="9.098039">
        <ele>1626.403651</ele>
        <time>2020-09-19T12:19:21.725Z</time>
      </trkpt>
      <trkpt lat="47.064831" lon="9.097950">
        <ele>1625.586496</ele>
        <time>2020-09-19T12:19:31.723Z</time>
      </trkpt>
      <trkpt lat="47.064756" lon="9.097855">
        <ele>1624.760529</ele>
        <time>2020-09-19T12:19:40.720Z</time>
      </trkpt>
      <trkpt lat="47.064682" lon="9.097765">
        <ele>1623.959266</ele>
        <time>2020-09-19T12:19:49.719Z</time>
      </trkpt>
      <trkpt lat="47.064603" lon="9.097685">
        <ele>1623.159035</ele>
        <time>2020-09-19T12:19:59.710Z</time>
      </trkpt>
      <trkpt lat="47.064556" lon="9.097560">
        <ele>1622.348086</ele>
        <time>2020-09-19T12:20:09.719Z</time>
      </trkpt>
      <trkpt lat="47.064512" lon="9.097437">
        <ele>1621.558999</ele>
        <time>2020-09-19T12:20:18.725Z</time>
      </trkpt>
      <trkpt lat="47.064486" lon="9.097302">
        <ele>1620.762173</ele>
        <time>2020-09-19T12:20:27.724Z</time>
      </trkpt>
      <trkpt lat="47.064490" lon="9.097155">
        <ele>1619.926582</ele>
        <time>2020-09-19T12:20:36.722Z</time>
      </trkpt>
      <trkpt lat="47.064514" lon="9.097019">
        <ele>1619.128633</ele>
        <time>2020-09-19T12:20:45.722Z</time>
      </trkpt>
      <trkpt lat="47.064565" lon="9.096901">
        <ele>1618.334895</ele>
        <time>2020-09-19T12:20:54.708Z</time>
      </trkpt>
      <trkpt lat="47.064649" lon="9.096834">
        <ele>1617.537785</ele>
        <time>2020-09-19T12:21:03.724Z</time>
      </trkpt>
      <trkpt lat="47.064743" lon="9.096826">
        <ele>1616.752679</ele>
        <time>2020-09-19T12:21:12.727Z</time>
      </trkpt>
      <trkpt lat="47.064833" lon="9.096879">
        <ele>1615.835372</ele>
        <time>2020-09-19T12:21:20.721Z</time>
      </trkpt>
      <trkpt lat="47.064922" lon="9.096921">
        <ele>1614.887449</ele>
        <time>2020-09-19T12:21:34.724Z</time>
      </trkpt>
      <trkpt lat="47.065017" lon="9.096946">
        <ele>1613.908813</ele>
        <time>2020-09-19T12:21:43.722Z</time>
      </trkpt>
      <trkpt lat="47.065111" lon="9.096950">
        <ele>1612.955269</ele>
        <time>2020-09-19T12:21:52.720Z</time>
      </trkpt>
      <trkpt lat="47.065210" lon="9.096959">
        <ele>1611.949504</ele>
        <time>2020-09-19T12:22:01.724Z</time>
      </trkpt>
      <trkpt lat="47.065303" lon="9.096973">
        <ele>1611.001557</ele>
        <time>2020-09-19T12:22:10.714Z</time>
      </trkpt>
      <trkpt lat="47.065399" lon="9.096992">
        <ele>1610.019328</ele>
        <time>2020-09-19T12:22:19.722Z</time>
      </trkpt>
      <trkpt lat="47.065487" lon="9.097040">
        <ele>1609.067425</ele>
        <time>2020-09-19T12:22:28.722Z</time>
      </trkpt>
      <trkpt lat="47.065581" lon="9.097081">
        <ele>1608.073105</ele>
        <time>2020-09-19T12:22:37.720Z</time>
      </trkpt>
      <trkpt lat="47.065680" lon="9.097088">
        <ele>1607.068099</ele>
        <time>2020-09-19T12:22:47.721Z</time>
      </trkpt>
      <trkpt lat="47.065751" lon="9.096985">
        <ele>1606.055978</ele>
        <time>2020-09-19T12:22:56.762Z</time>
      </trkpt>
      <trkpt lat="47.065795" lon="9.096854">
        <ele>1605.047165</ele>
        <time>2020-09-19T12:23:05.720Z</time>
      </trkpt>
      <trkpt lat="47.065835" lon="9.096726">
        <ele>1604.074494</ele>
        <time>2020-09-19T12:23:14.721Z</time>
      </trkpt>
      <trkpt lat="47.065834" lon="9.096583">
        <ele>1603.086767</ele>
        <time>2020-09-19T12:23:23.721Z</time>
      </trkpt>
      <trkpt lat="47.065867" lon="9.096448">
        <ele>1602.096124</ele>
        <time>2020-09-19T12:23:32.722Z</time>
      </trkpt>
      <trkpt lat="47.065918" lon="9.096326">
        <ele>1601.107464</ele>
        <time>2020-09-19T12:23:42.719Z</time>
      </trkpt>
      <trkpt lat="47.065965" lon="9.096199">
        <ele>1600.109197</ele>
        <time>2020-09-19T12:23:52.721Z</time>
      </trkpt>
      <trkpt lat="47.066018" lon="9.096085">
        <ele>1599.155903</ele>
        <time>2020-09-19T12:24:03.724Z</time>
      </trkpt>
      <trkpt lat="47.066069" lon="9.095962">
        <ele>1598.118984</ele>
        <time>2020-09-19T12:24:13.722Z</time>
      </trkpt>
      <trkpt lat="47.066096" lon="9.095835">
        <ele>1596.391331</ele>
        <time>2020-09-19T12:24:20.723Z</time>
      </trkpt>
      <trkpt lat="47.066141" lon="9.095714">
        <ele>1594.601111</ele>
        <time>2020-09-19T12:24:31.721Z</time>
      </trkpt>
      <trkpt lat="47.066169" lon="9.095588">
        <ele>1592.880035</ele>
        <time>2020-09-19T12:24:44.716Z</time>
      </trkpt>
      <trkpt lat="47.066209" lon="9.095469">
        <ele>1591.156818</ele>
        <time>2020-09-19T12:24:56.723Z</time>
      </trkpt>
      <trkpt lat="47.066244" lon="9.095336">
        <ele>1589.305305</ele>
        <time>2020-09-19T12:25:07.722Z</time>
      </trkpt>
      <trkpt lat="47.066254" lon="9.095195">
        <ele>1587.464421</ele>
        <time>2020-09-19T12:25:16.723Z</time>
      </trkpt>
      <trkpt lat="47.066290" lon="9.095071">
        <ele>1585.714032</ele>
        <time>2020-09-19T12:25:26.737Z</time>
      </trkpt>
      <trkpt lat="47.066356" lon="9.094970">
        <ele>1583.896517</ele>
        <time>2020-09-19T12:25:35.725Z</time>
      </trkpt>
      <trkpt lat="47.066367" lon="9.094836">
        <ele>1582.143844</ele>
        <time>2020-09-19T12:25:42.725Z</time>
      </trkpt>
      <trkpt lat="47.066428" lon="9.094731">
        <ele>1580.351774</ele>
        <time>2020-09-19T12:25:54.722Z</time>
      </trkpt>
      <trkpt lat="47.066476" lon="9.094616">
        <ele>1578.600351</ele>
        <time>2020-09-19T12:26:04.725Z</time>
      </trkpt>
      <trkpt lat="47.066537" lon="9.094511">
        <ele>1576.808283</ele>
        <time>2020-09-19T12:26:15.723Z</time>
      </trkpt>
      <trkpt lat="47.066591" lon="9.094395">
        <ele>1574.983767</ele>
        <time>2020-09-19T12:26:28.727Z</time>
      </trkpt>
      <trkpt lat="47.066701" lon="9.094249">
        <ele>1572.156725</ele>
        <time>2020-09-19T12:27:13.725Z</time>
      </trkpt>
      <trkpt lat="47.066776" lon="9.094159">
        <ele>1570.310034</ele>
        <time>2020-09-19T12:27:26.726Z</time>
      </trkpt>
      <trkpt lat="47.066860" lon="9.094091">
        <ele>1568.481314</ele>
        <time>2020-09-19T12:27:36.724Z</time>
      </trkpt>
      <trkpt lat="47.066949" lon="9.094063">
        <ele>1566.746068</ele>
        <time>2020-09-19T12:27:46.727Z</time>
      </trkpt>
      <trkpt lat="47.067038" lon="9.094014">
        <ele>1564.933958</ele>
        <time>2020-09-19T12:27:56.723Z</time>
      </trkpt>
      <trkpt lat="47.067129" lon="9.093993">
        <ele>1563.081670</ele>
        <time>2020-09-19T12:28:06.723Z</time>
      </trkpt>
      <trkpt lat="47.067217" lon="9.093934">
        <ele>1560.998323</ele>
        <time>2020-09-19T12:28:19.723Z</time>
      </trkpt>
      <trkpt lat="47.067308" lon="9.093900">
        <ele>1558.976166</ele>
        <time>2020-09-19T12:28:29.728Z</time>
      </trkpt>
      <trkpt lat="47.067397" lon="9.093850">
        <ele>1556.924011</ele>
        <time>2020-09-19T12:28:41.720Z</time>
      </trkpt>
      <trkpt lat="47.067526" lon="9.093777">
        <ele>1553.946762</ele>
        <time>2020-09-19T12:29:07.723Z</time>
      </trkpt>
      <trkpt lat="47.067598" lon="9.093686">
        <ele>1551.900823</ele>
        <time>2020-09-19T12:29:18.719Z</time>
      </trkpt>
      <trkpt lat="47.067684" lon="9.093644">
        <ele>1549.949028</ele>
        <time>2020-09-19T12:29:31.722Z</time>
      </trkpt>
      <trkpt lat="47.067842" lon="9.093536">
        <ele>1546.195777</ele>
        <time>2020-09-19T12:30:07.721Z</time>
      </trkpt>
      <trkpt lat="47.067926" lon="9.093475">
        <ele>1544.177637</ele>
        <time>2020-09-19T12:30:15.723Z</time>
      </trkpt>
      <trkpt lat="47.067983" lon="9.093370">
        <ele>1542.208158</ele>
        <time>2020-09-19T12:30:28.724Z</time>
      </trkpt>
      <trkpt lat="47.068075" lon="9.093324">
        <ele>1540.115186</ele>
        <time>2020-09-19T12:30:41.722Z</time>
      </trkpt>
      <trkpt lat="47.068147" lon="9.093235">
        <ele>1538.088274</ele>
        <time>2020-09-19T12:30:50.762Z</time>
      </trkpt>
      <trkpt lat="47.068311" lon="9.093218">
        <ele>1534.547729</ele>
        <time>2020-09-19T12:31:54.765Z</time>
      </trkpt>
      <trkpt lat="47.068394" lon="9.093153">
        <ele>1532.521931</ele>
        <time>2020-09-19T12:32:09.720Z</time>
      </trkpt>
      <trkpt lat="47.068489" lon="9.093133">
        <ele>1530.455172</ele>
        <time>2020-09-19T12:32:19.732Z</time>
      </trkpt>
      <trkpt lat="47.068584" lon="9.093157">
        <ele>1528.379273</ele>
        <time>2020-09-19T12:32:31.721Z</time>
      </trkpt>
      <trkpt lat="47.068683" lon="9.093171">
        <ele>1526.237433</ele>
        <time>2020-09-19T12:32:42.705Z</time>
      </trkpt>
      <trkpt lat="47.068778" lon="9.093186">
        <ele>1524.060238</ele>
        <time>2020-09-19T12:32:52.726Z</time>
      </trkpt>
      <trkpt lat="47.068869" lon="9.093211">
        <ele>1521.829536</ele>
        <time>2020-09-19T12:33:04.732Z</time>
      </trkpt>
      <trkpt lat="47.068961" lon="9.093227">
        <ele>1519.597297</ele>
        <time>2020-09-19T12:33:16.725Z</time>
      </trkpt>
      <trkpt lat="47.069055" lon="9.093247">
        <ele>1517.308707</ele>
        <time>2020-09-19T12:33:29.723Z</time>
      </trkpt>
      <trkpt lat="47.069128" lon="9.093344">
        <ele>1514.936357</ele>
        <time>2020-09-19T12:33:40.725Z</time>
      </trkpt>
      <trkpt lat="47.069208" lon="9.093407">
        <ele>1512.748975</ele>
        <time>2020-09-19T12:33:50.721Z</time>
      </trkpt>
      <trkpt lat="47.069298" lon="9.093348">
        <ele>1510.374071</ele>
        <time>2020-09-19T12:34:11.721Z</time>
      </trkpt>
      <trkpt lat="47.069386" lon="9.093321">
        <ele>1508.207906</ele>
        <time>2020-09-19T12:34:22.725Z</time>
      </trkpt>
      <trkpt lat="47.069477" lon="9.093296">
        <ele>1505.977204</ele>
        <time>2020-09-19T12:34:33.727Z</time>
      </trkpt>
      <trkpt lat="47.069573" lon="9.093294">
        <ele>1503.663851</ele>
        <time>2020-09-19T12:34:46.721Z</time>
      </trkpt>
      <trkpt lat="47.069657" lon="9.093344">
        <ele>1501.479858</ele>
        <time>2020-09-19T12:35:00.766Z</time>
      </trkpt>
      <trkpt lat="47.069752" lon="9.093341">
        <ele>1499.190303</ele>
        <time>2020-09-19T12:35:11.714Z</time>
      </trkpt>
      <trkpt lat="47.069842" lon="9.093353">
        <ele>1497.012828</ele>
        <time>2020-09-19T12:35:31.723Z</time>
      </trkpt>
      <trkpt lat="47.069926" lon="9.093418">
        <ele>1494.724945</ele>
        <time>2020-09-19T12:35:45.725Z</time>
      </trkpt>
      <trkpt lat="47.069992" lon="9.093515">
        <ele>1492.474818</ele>
        <time>2020-09-19T12:36:00.725Z</time>
      </trkpt>
      <trkpt lat="47.070087" lon="9.093492">
        <ele>1490.154880</ele>
        <time>2020-09-19T12:36:11.726Z</time>
      </trkpt>
      <trkpt lat="47.070183" lon="9.093447">
        <ele>1487.726730</ele>
        <time>2020-09-19T12:36:20.722Z</time>
      </trkpt>
      <trkpt lat="47.070242" lon="9.093346">
        <ele>1485.543074</ele>
        <time>2020-09-19T12:36:38.767Z</time>
      </trkpt>
      <trkpt lat="47.070294" lon="9.093236">
        <ele>1483.345645</ele>
        <time>2020-09-19T12:36:47.726Z</time>
      </trkpt>
      <trkpt lat="47.070362" lon="9.093132">
        <ele>1481.847314</ele>
        <time>2020-09-19T12:36:58.724Z</time>
      </trkpt>
      <trkpt lat="47.070421" lon="9.093015">
        <ele>1481.847314</ele>
        <time>2020-09-19T12:37:10.725Z</time>
      </trkpt>
      <trkpt lat="47.070487" lon="9.092917">
        <ele>1481.847314</ele>
        <time>2020-09-19T12:37:23.723Z</time>
      </trkpt>
      <trkpt lat="47.070564" lon="9.092848">
        <ele>1481.847314</ele>
        <time>2020-09-19T12:37:32.722Z</time>
      </trkpt>
      <trkpt lat="47.070621" lon="9.092745">
        <ele>1481.847314</ele>
        <time>2020-09-19T12:37:44.725Z</time>
      </trkpt>
      <trkpt lat="47.070657" lon="9.092624">
        <ele>1481.847314</ele>
        <time>2020-09-19T12:37:55.768Z</time>
      </trkpt>
      <trkpt lat="47.070683" lon="9.092486">
        <ele>1481.847314</ele>
        <time>2020-09-19T12:38:06.727Z</time>
      </trkpt>
      <trkpt lat="47.070716" lon="9.092351">
        <ele>1481.847314</ele>
        <time>2020-09-19T12:38:22.725Z</time>
      </trkpt>
      <trkpt lat="47.070738" lon="9.092202">
        <ele>1481.847314</ele>
        <time>2020-09-19T12:38:58.727Z</time>
      </trkpt>
      <trkpt lat="47.070775" lon="9.092072">
        <ele>1481.847314</ele>
        <time>2020-09-19T12:39:13.723Z</time>
      </trkpt>
      <trkpt lat="47.070808" lon="9.091944">
        <ele>1481.847314</ele>
        <time>2020-09-19T12:39:26.728Z</time>
      </trkpt>
      <trkpt lat="47.070898" lon="9.091910">
        <ele>1481.847314</ele>
        <time>2020-09-19T12:39:40.727Z</time>
      </trkpt>
      <trkpt lat="47.070932" lon="9.091783">
        <ele>1481.847314</ele>
        <time>2020-09-19T12:39:53.727Z</time>
      </trkpt>
      <trkpt lat="47.070948" lon="9.091646">
        <ele>1481.847314</ele>
        <time>2020-09-19T12:40:08.726Z</time>
      </trkpt>
      <trkpt lat="47.070956" lon="9.091510">
        <ele>1481.847314</ele>
        <time>2020-09-19T12:40:22.725Z</time>
      </trkpt>
      <trkpt lat="47.070961" lon="9.091375">
        <ele>1481.847314</ele>
        <time>2020-09-19T12:40:41.725Z</time>
      </trkpt>
      <trkpt lat="47.071052" lon="9.091325">
        <ele>1481.847314</ele>
        <time>2020-09-19T12:40:56.724Z</time>
      </trkpt>
      <trkpt lat="47.071098" lon="9.091206">
        <ele>1481.847314</ele>
        <time>2020-09-19T12:41:06.726Z</time>
      </trkpt>
      <trkpt lat="47.071138" lon="9.091075">
        <ele>1481.847314</ele>
        <time>2020-09-19T12:41:16.765Z</time>
      </trkpt>
      <trkpt lat="47.071155" lon="9.090938">
        <ele>1481.847314</ele>
        <time>2020-09-19T12:41:28.774Z</time>
      </trkpt>
      <trkpt lat="47.071177" lon="9.090817">
        <ele>1481.847314</ele>
        <time>2020-09-19T12:44:17.002Z</time>
      </trkpt>
    </trkseg>
  </trk>
</gpx>